<?xml version="1.0" encoding="utf-8"?>
<gpx xmlns:xsi="http://www.w3.org/2001/XMLSchema-instance" xmlns:xsd="http://www.w3.org/2001/XMLSchema" version="1.1" creator="Shapelink.com" xmlns="http://www.topografix.com/GPX/1/1" xmlns:gpxtpx="http://www.garmin.com/xmlschemas/TrackPointExtension/v1">
  <metadata>
    <name>Gåing 1.55 km, 2013-04-12</name>
    <desc></desc>
    <author><name>Mikael Blom</name></author> 
    <time>2013-04-12T18:41:19Z</time>
  </metadata>
  <trk>
    <name>Gåing 1.55 km, 2013-04-12</name>
    <trkseg>
      <trkpt lat="59.9789552" lon="17.7397885">
        <ele>37.6287</ele>
        <time>2013-04-12T18:41:19Z</time>
      </trkpt>
      <trkpt lat="59.9789537" lon="17.7397641">
        <ele>37.1481</ele>
        <time>2013-04-12T18:41:20Z</time>
      </trkpt>
      <trkpt lat="59.9789547" lon="17.739735">
        <ele>36.6675</ele>
        <time>2013-04-12T18:41:21Z</time>
      </trkpt>
      <trkpt lat="59.9789581" lon="17.7397075">
        <ele>36.1868</ele>
        <time>2013-04-12T18:41:22Z</time>
      </trkpt>
      <trkpt lat="59.9789615" lon="17.7396843">
        <ele>36.1868</ele>
        <time>2013-04-12T18:41:23Z</time>
      </trkpt>
      <trkpt lat="59.9789667" lon="17.7396614">
        <ele>36.1868</ele>
        <time>2013-04-12T18:41:24Z</time>
      </trkpt>
      <trkpt lat="59.9789711" lon="17.7396397">
        <ele>35.7061</ele>
        <time>2013-04-12T18:41:25Z</time>
      </trkpt>
      <trkpt lat="59.9789766" lon="17.7396185">
        <ele>36.1868</ele>
        <time>2013-04-12T18:41:26Z</time>
      </trkpt>
      <trkpt lat="59.9789821" lon="17.7396008">
        <ele>35.7061</ele>
        <time>2013-04-12T18:41:27Z</time>
      </trkpt>
      <trkpt lat="59.9789856" lon="17.7395821">
        <ele>35.2255</ele>
        <time>2013-04-12T18:41:28Z</time>
      </trkpt>
      <trkpt lat="59.9789836" lon="17.7395646">
        <ele>35.2255</ele>
        <time>2013-04-12T18:41:29Z</time>
      </trkpt>
      <trkpt lat="59.9789755" lon="17.7395424">
        <ele>35.2255</ele>
        <time>2013-04-12T18:41:30Z</time>
      </trkpt>
      <trkpt lat="59.9789618" lon="17.7395144">
        <ele>35.2255</ele>
        <time>2013-04-12T18:41:31Z</time>
      </trkpt>
      <trkpt lat="59.9789454" lon="17.7394932">
        <ele>35.2255</ele>
        <time>2013-04-12T18:41:32Z</time>
      </trkpt>
      <trkpt lat="59.978936" lon="17.7394786">
        <ele>34.7449</ele>
        <time>2013-04-12T18:41:33Z</time>
      </trkpt>
      <trkpt lat="59.9789276" lon="17.7394631">
        <ele>34.7449</ele>
        <time>2013-04-12T18:41:34Z</time>
      </trkpt>
      <trkpt lat="59.9789191" lon="17.7394375">
        <ele>34.7449</ele>
        <time>2013-04-12T18:41:35Z</time>
      </trkpt>
      <trkpt lat="59.9789123" lon="17.739402">
        <ele>35.2255</ele>
        <time>2013-04-12T18:41:36Z</time>
      </trkpt>
      <trkpt lat="59.9789096" lon="17.7393663">
        <ele>35.2255</ele>
        <time>2013-04-12T18:41:37Z</time>
      </trkpt>
      <trkpt lat="59.9789124" lon="17.7393404">
        <ele>35.2255</ele>
        <time>2013-04-12T18:41:38Z</time>
      </trkpt>
      <trkpt lat="59.9789204" lon="17.7393139">
        <ele>35.2255</ele>
        <time>2013-04-12T18:41:39Z</time>
      </trkpt>
      <trkpt lat="59.978933" lon="17.7392995">
        <ele>35.2255</ele>
        <time>2013-04-12T18:41:40Z</time>
      </trkpt>
      <trkpt lat="59.9789467" lon="17.7392922">
        <ele>35.2255</ele>
        <time>2013-04-12T18:41:41Z</time>
      </trkpt>
      <trkpt lat="59.9789599" lon="17.739287">
        <ele>34.7449</ele>
        <time>2013-04-12T18:41:42Z</time>
      </trkpt>
      <trkpt lat="59.9789745" lon="17.7392813">
        <ele>34.7449</ele>
        <time>2013-04-12T18:41:43Z</time>
      </trkpt>
      <trkpt lat="59.9789895" lon="17.739275">
        <ele>34.7449</ele>
        <time>2013-04-12T18:41:44Z</time>
      </trkpt>
      <trkpt lat="59.9790048" lon="17.7392663">
        <ele>34.7449</ele>
        <time>2013-04-12T18:41:45Z</time>
      </trkpt>
      <trkpt lat="59.9790182" lon="17.7392617">
        <ele>34.7449</ele>
        <time>2013-04-12T18:41:46Z</time>
      </trkpt>
      <trkpt lat="59.9790339" lon="17.7392554">
        <ele>34.7449</ele>
        <time>2013-04-12T18:41:47Z</time>
      </trkpt>
      <trkpt lat="59.9790493" lon="17.7392475">
        <ele>34.7449</ele>
        <time>2013-04-12T18:41:48Z</time>
      </trkpt>
      <trkpt lat="59.9790649" lon="17.7392388">
        <ele>34.7449</ele>
        <time>2013-04-12T18:41:49Z</time>
      </trkpt>
      <trkpt lat="59.9790776" lon="17.7392321">
        <ele>34.7449</ele>
        <time>2013-04-12T18:41:50Z</time>
      </trkpt>
      <trkpt lat="59.9790914" lon="17.739228">
        <ele>34.2642</ele>
        <time>2013-04-12T18:41:51Z</time>
      </trkpt>
      <trkpt lat="59.9791049" lon="17.7392217">
        <ele>34.2642</ele>
        <time>2013-04-12T18:41:52Z</time>
      </trkpt>
      <trkpt lat="59.9791183" lon="17.7392133">
        <ele>34.2642</ele>
        <time>2013-04-12T18:41:53Z</time>
      </trkpt>
      <trkpt lat="59.9791314" lon="17.7392041">
        <ele>34.2642</ele>
        <time>2013-04-12T18:41:54Z</time>
      </trkpt>
      <trkpt lat="59.9791438" lon="17.7391963">
        <ele>34.2642</ele>
        <time>2013-04-12T18:41:55Z</time>
      </trkpt>
      <trkpt lat="59.9791577" lon="17.7391889">
        <ele>34.2642</ele>
        <time>2013-04-12T18:41:56Z</time>
      </trkpt>
      <trkpt lat="59.979171" lon="17.7391813">
        <ele>34.2642</ele>
        <time>2013-04-12T18:41:57Z</time>
      </trkpt>
      <trkpt lat="59.9791833" lon="17.739175">
        <ele>33.7834</ele>
        <time>2013-04-12T18:41:58Z</time>
      </trkpt>
      <trkpt lat="59.9791976" lon="17.7391647">
        <ele>34.2642</ele>
        <time>2013-04-12T18:41:59Z</time>
      </trkpt>
      <trkpt lat="59.9792106" lon="17.7391544">
        <ele>34.2642</ele>
        <time>2013-04-12T18:42:00Z</time>
      </trkpt>
      <trkpt lat="59.9792228" lon="17.7391481">
        <ele>34.2642</ele>
        <time>2013-04-12T18:42:01Z</time>
      </trkpt>
      <trkpt lat="59.979237" lon="17.7391433">
        <ele>34.2642</ele>
        <time>2013-04-12T18:42:02Z</time>
      </trkpt>
      <trkpt lat="59.9792517" lon="17.7391378">
        <ele>34.2642</ele>
        <time>2013-04-12T18:42:03Z</time>
      </trkpt>
      <trkpt lat="59.9792669" lon="17.7391315">
        <ele>34.2642</ele>
        <time>2013-04-12T18:42:04Z</time>
      </trkpt>
      <trkpt lat="59.9792816" lon="17.7391244">
        <ele>34.2642</ele>
        <time>2013-04-12T18:42:05Z</time>
      </trkpt>
      <trkpt lat="59.9792945" lon="17.7391177">
        <ele>34.7449</ele>
        <time>2013-04-12T18:42:06Z</time>
      </trkpt>
      <trkpt lat="59.9793069" lon="17.7391119">
        <ele>34.7449</ele>
        <time>2013-04-12T18:42:07Z</time>
      </trkpt>
      <trkpt lat="59.9793192" lon="17.7391061">
        <ele>34.7449</ele>
        <time>2013-04-12T18:42:08Z</time>
      </trkpt>
      <trkpt lat="59.9793311" lon="17.739102">
        <ele>34.7449</ele>
        <time>2013-04-12T18:42:09Z</time>
      </trkpt>
      <trkpt lat="59.9793412" lon="17.7390969">
        <ele>34.7449</ele>
        <time>2013-04-12T18:42:10Z</time>
      </trkpt>
      <trkpt lat="59.9793516" lon="17.739089">
        <ele>35.2255</ele>
        <time>2013-04-12T18:42:11Z</time>
      </trkpt>
      <trkpt lat="59.9793648" lon="17.7390778">
        <ele>35.7061</ele>
        <time>2013-04-12T18:42:12Z</time>
      </trkpt>
      <trkpt lat="59.9793752" lon="17.7390642">
        <ele>35.7061</ele>
        <time>2013-04-12T18:42:13Z</time>
      </trkpt>
      <trkpt lat="59.9793821" lon="17.7390409">
        <ele>36.1868</ele>
        <time>2013-04-12T18:42:14Z</time>
      </trkpt>
      <trkpt lat="59.9793904" lon="17.7390175">
        <ele>36.1868</ele>
        <time>2013-04-12T18:42:15Z</time>
      </trkpt>
      <trkpt lat="59.9793992" lon="17.7389905">
        <ele>36.6675</ele>
        <time>2013-04-12T18:42:16Z</time>
      </trkpt>
      <trkpt lat="59.9794101" lon="17.7389752">
        <ele>36.6675</ele>
        <time>2013-04-12T18:42:17Z</time>
      </trkpt>
      <trkpt lat="59.9794239" lon="17.7389633">
        <ele>37.1481</ele>
        <time>2013-04-12T18:42:18Z</time>
      </trkpt>
      <trkpt lat="59.979437" lon="17.7389499">
        <ele>37.1481</ele>
        <time>2013-04-12T18:42:19Z</time>
      </trkpt>
      <trkpt lat="59.9794498" lon="17.7389382">
        <ele>37.6287</ele>
        <time>2013-04-12T18:42:20Z</time>
      </trkpt>
      <trkpt lat="59.9794632" lon="17.7389244">
        <ele>37.6287</ele>
        <time>2013-04-12T18:42:21Z</time>
      </trkpt>
      <trkpt lat="59.9794791" lon="17.7389069">
        <ele>38.1094</ele>
        <time>2013-04-12T18:42:22Z</time>
      </trkpt>
      <trkpt lat="59.979491" lon="17.7388947">
        <ele>38.1094</ele>
        <time>2013-04-12T18:42:23Z</time>
      </trkpt>
      <trkpt lat="59.9795023" lon="17.7388844">
        <ele>38.1094</ele>
        <time>2013-04-12T18:42:24Z</time>
      </trkpt>
      <trkpt lat="59.9795106" lon="17.7388814">
        <ele>38.1094</ele>
        <time>2013-04-12T18:42:25Z</time>
      </trkpt>
      <trkpt lat="59.979524" lon="17.7388756">
        <ele>38.1094</ele>
        <time>2013-04-12T18:42:26Z</time>
      </trkpt>
      <trkpt lat="59.9795395" lon="17.7388729">
        <ele>38.5901</ele>
        <time>2013-04-12T18:42:27Z</time>
      </trkpt>
      <trkpt lat="59.9795502" lon="17.7388689">
        <ele>38.1094</ele>
        <time>2013-04-12T18:42:28Z</time>
      </trkpt>
      <trkpt lat="59.9795633" lon="17.7388555">
        <ele>38.5901</ele>
        <time>2013-04-12T18:42:29Z</time>
      </trkpt>
      <trkpt lat="59.9795805" lon="17.7388441">
        <ele>39.5513</ele>
        <time>2013-04-12T18:42:30Z</time>
      </trkpt>
      <trkpt lat="59.9795946" lon="17.7388342">
        <ele>39.5513</ele>
        <time>2013-04-12T18:42:31Z</time>
      </trkpt>
      <trkpt lat="59.9796068" lon="17.7388213">
        <ele>39.5513</ele>
        <time>2013-04-12T18:42:32Z</time>
      </trkpt>
      <trkpt lat="59.9796172" lon="17.7388128">
        <ele>39.5513</ele>
        <time>2013-04-12T18:42:33Z</time>
      </trkpt>
      <trkpt lat="59.9796288" lon="17.7388053">
        <ele>39.0707</ele>
        <time>2013-04-12T18:42:34Z</time>
      </trkpt>
      <trkpt lat="59.9796396" lon="17.7387979">
        <ele>39.0707</ele>
        <time>2013-04-12T18:42:35Z</time>
      </trkpt>
      <trkpt lat="59.9796535" lon="17.7387884">
        <ele>38.5901</ele>
        <time>2013-04-12T18:42:36Z</time>
      </trkpt>
      <trkpt lat="59.979666" lon="17.7387865">
        <ele>38.1094</ele>
        <time>2013-04-12T18:42:37Z</time>
      </trkpt>
      <trkpt lat="59.979678" lon="17.7387809">
        <ele>37.1481</ele>
        <time>2013-04-12T18:42:38Z</time>
      </trkpt>
      <trkpt lat="59.9796914" lon="17.7387716">
        <ele>37.1481</ele>
        <time>2013-04-12T18:42:39Z</time>
      </trkpt>
      <trkpt lat="59.9797053" lon="17.7387672">
        <ele>37.1481</ele>
        <time>2013-04-12T18:42:40Z</time>
      </trkpt>
      <trkpt lat="59.9797178" lon="17.7387628">
        <ele>36.6675</ele>
        <time>2013-04-12T18:42:41Z</time>
      </trkpt>
      <trkpt lat="59.9797272" lon="17.7387569">
        <ele>36.6675</ele>
        <time>2013-04-12T18:42:42Z</time>
      </trkpt>
      <trkpt lat="59.9797398" lon="17.7387503">
        <ele>36.6675</ele>
        <time>2013-04-12T18:42:43Z</time>
      </trkpt>
      <trkpt lat="59.9797569" lon="17.7387378">
        <ele>37.1481</ele>
        <time>2013-04-12T18:42:44Z</time>
      </trkpt>
      <trkpt lat="59.9797723" lon="17.7387322">
        <ele>37.1481</ele>
        <time>2013-04-12T18:42:45Z</time>
      </trkpt>
      <trkpt lat="59.9797919" lon="17.7387387">
        <ele>37.1481</ele>
        <time>2013-04-12T18:42:46Z</time>
      </trkpt>
      <trkpt lat="59.9798145" lon="17.7387486">
        <ele>37.6287</ele>
        <time>2013-04-12T18:42:47Z</time>
      </trkpt>
      <trkpt lat="59.9798318" lon="17.7387491">
        <ele>38.1094</ele>
        <time>2013-04-12T18:42:48Z</time>
      </trkpt>
      <trkpt lat="59.9798487" lon="17.7387431">
        <ele>39.0707</ele>
        <time>2013-04-12T18:42:49Z</time>
      </trkpt>
      <trkpt lat="59.9798678" lon="17.7387374">
        <ele>39.5513</ele>
        <time>2013-04-12T18:42:50Z</time>
      </trkpt>
      <trkpt lat="59.9798861" lon="17.7387315">
        <ele>39.5513</ele>
        <time>2013-04-12T18:42:51Z</time>
      </trkpt>
      <trkpt lat="59.9799053" lon="17.7387261">
        <ele>40.9934</ele>
        <time>2013-04-12T18:42:52Z</time>
      </trkpt>
      <trkpt lat="59.9799247" lon="17.7387197">
        <ele>41.9547</ele>
        <time>2013-04-12T18:42:53Z</time>
      </trkpt>
      <trkpt lat="59.9799436" lon="17.7387138">
        <ele>42.916</ele>
        <time>2013-04-12T18:42:54Z</time>
      </trkpt>
      <trkpt lat="59.97996" lon="17.7387134">
        <ele>43.3966</ele>
        <time>2013-04-12T18:42:55Z</time>
      </trkpt>
      <trkpt lat="59.9799766" lon="17.7387118">
        <ele>43.8773</ele>
        <time>2013-04-12T18:42:56Z</time>
      </trkpt>
      <trkpt lat="59.9799907" lon="17.7387104">
        <ele>43.8773</ele>
        <time>2013-04-12T18:42:57Z</time>
      </trkpt>
      <trkpt lat="59.9800052" lon="17.7387115">
        <ele>44.358</ele>
        <time>2013-04-12T18:42:58Z</time>
      </trkpt>
      <trkpt lat="59.9800223" lon="17.7387159">
        <ele>44.8386</ele>
        <time>2013-04-12T18:42:59Z</time>
      </trkpt>
      <trkpt lat="59.9800395" lon="17.7387151">
        <ele>45.3192</ele>
        <time>2013-04-12T18:43:00Z</time>
      </trkpt>
      <trkpt lat="59.9800576" lon="17.7387109">
        <ele>46.2806</ele>
        <time>2013-04-12T18:43:01Z</time>
      </trkpt>
      <trkpt lat="59.9800788" lon="17.7387141">
        <ele>47.7225</ele>
        <time>2013-04-12T18:43:02Z</time>
      </trkpt>
      <trkpt lat="59.9800937" lon="17.7387181">
        <ele>48.2034</ele>
        <time>2013-04-12T18:43:03Z</time>
      </trkpt>
      <trkpt lat="59.9801113" lon="17.7387093">
        <ele>49.1646</ele>
        <time>2013-04-12T18:43:04Z</time>
      </trkpt>
      <trkpt lat="59.9801269" lon="17.7386958">
        <ele>50.126</ele>
        <time>2013-04-12T18:43:05Z</time>
      </trkpt>
      <trkpt lat="59.9801394" lon="17.7386933">
        <ele>50.126</ele>
        <time>2013-04-12T18:43:06Z</time>
      </trkpt>
      <trkpt lat="59.9801512" lon="17.738697">
        <ele>50.126</ele>
        <time>2013-04-12T18:43:07Z</time>
      </trkpt>
      <trkpt lat="59.9801685" lon="17.7386929">
        <ele>50.6066</ele>
        <time>2013-04-12T18:43:08Z</time>
      </trkpt>
      <trkpt lat="59.9801819" lon="17.7386895">
        <ele>51.0872</ele>
        <time>2013-04-12T18:43:09Z</time>
      </trkpt>
      <trkpt lat="59.9801995" lon="17.738689">
        <ele>52.0486</ele>
        <time>2013-04-12T18:43:10Z</time>
      </trkpt>
      <trkpt lat="59.9802165" lon="17.7386973">
        <ele>53.0098</ele>
        <time>2013-04-12T18:43:11Z</time>
      </trkpt>
      <trkpt lat="59.9802297" lon="17.738702">
        <ele>53.0098</ele>
        <time>2013-04-12T18:43:12Z</time>
      </trkpt>
      <trkpt lat="59.9802414" lon="17.7387083">
        <ele>53.4905</ele>
        <time>2013-04-12T18:43:13Z</time>
      </trkpt>
      <trkpt lat="59.9802558" lon="17.7387088">
        <ele>53.9712</ele>
        <time>2013-04-12T18:43:14Z</time>
      </trkpt>
      <trkpt lat="59.9802716" lon="17.7387089">
        <ele>54.4518</ele>
        <time>2013-04-12T18:43:15Z</time>
      </trkpt>
      <trkpt lat="59.9802865" lon="17.7387193">
        <ele>54.4518</ele>
        <time>2013-04-12T18:43:16Z</time>
      </trkpt>
      <trkpt lat="59.9802958" lon="17.7387259">
        <ele>53.9712</ele>
        <time>2013-04-12T18:43:17Z</time>
      </trkpt>
      <trkpt lat="59.9803027" lon="17.7387346">
        <ele>53.4905</ele>
        <time>2013-04-12T18:43:18Z</time>
      </trkpt>
      <trkpt lat="59.9803136" lon="17.7387341">
        <ele>53.0098</ele>
        <time>2013-04-12T18:43:19Z</time>
      </trkpt>
      <trkpt lat="59.9803296" lon="17.7387291">
        <ele>53.9712</ele>
        <time>2013-04-12T18:43:20Z</time>
      </trkpt>
      <trkpt lat="59.980346" lon="17.7387286">
        <ele>53.9712</ele>
        <time>2013-04-12T18:43:21Z</time>
      </trkpt>
      <trkpt lat="59.9803684" lon="17.7387297">
        <ele>54.9324</ele>
        <time>2013-04-12T18:43:22Z</time>
      </trkpt>
      <trkpt lat="59.9803871" lon="17.7387322">
        <ele>55.4131</ele>
        <time>2013-04-12T18:43:23Z</time>
      </trkpt>
      <trkpt lat="59.9804103" lon="17.738726">
        <ele>56.8551</ele>
        <time>2013-04-12T18:43:24Z</time>
      </trkpt>
      <trkpt lat="59.9804298" lon="17.7387224">
        <ele>56.8551</ele>
        <time>2013-04-12T18:43:25Z</time>
      </trkpt>
      <trkpt lat="59.9804488" lon="17.7387222">
        <ele>57.3358</ele>
        <time>2013-04-12T18:43:26Z</time>
      </trkpt>
      <trkpt lat="59.9804658" lon="17.7387182">
        <ele>57.8165</ele>
        <time>2013-04-12T18:43:27Z</time>
      </trkpt>
      <trkpt lat="59.9804766" lon="17.7387142">
        <ele>57.3358</ele>
        <time>2013-04-12T18:43:28Z</time>
      </trkpt>
      <trkpt lat="59.9804854" lon="17.7387136">
        <ele>55.8938</ele>
        <time>2013-04-12T18:43:29Z</time>
      </trkpt>
      <trkpt lat="59.9804958" lon="17.7387067">
        <ele>55.4131</ele>
        <time>2013-04-12T18:43:30Z</time>
      </trkpt>
      <trkpt lat="59.9805049" lon="17.7386971">
        <ele>54.9324</ele>
        <time>2013-04-12T18:43:31Z</time>
      </trkpt>
      <trkpt lat="59.9805166" lon="17.7386959">
        <ele>53.9712</ele>
        <time>2013-04-12T18:43:32Z</time>
      </trkpt>
      <trkpt lat="59.9805293" lon="17.7386918">
        <ele>53.4905</ele>
        <time>2013-04-12T18:43:33Z</time>
      </trkpt>
      <trkpt lat="59.9805398" lon="17.73869">
        <ele>52.5292</ele>
        <time>2013-04-12T18:43:34Z</time>
      </trkpt>
      <trkpt lat="59.9805481" lon="17.7386927">
        <ele>52.0486</ele>
        <time>2013-04-12T18:43:35Z</time>
      </trkpt>
      <trkpt lat="59.9805663" lon="17.73868">
        <ele>53.0098</ele>
        <time>2013-04-12T18:43:36Z</time>
      </trkpt>
      <trkpt lat="59.9805752" lon="17.738673">
        <ele>52.0486</ele>
        <time>2013-04-12T18:43:37Z</time>
      </trkpt>
      <trkpt lat="59.980592" lon="17.7386685">
        <ele>52.5292</ele>
        <time>2013-04-12T18:43:38Z</time>
      </trkpt>
      <trkpt lat="59.9806052" lon="17.738667">
        <ele>52.0486</ele>
        <time>2013-04-12T18:43:39Z</time>
      </trkpt>
      <trkpt lat="59.980616" lon="17.7386715">
        <ele>51.0872</ele>
        <time>2013-04-12T18:43:40Z</time>
      </trkpt>
      <trkpt lat="59.9806283" lon="17.7386714">
        <ele>50.6066</ele>
        <time>2013-04-12T18:43:41Z</time>
      </trkpt>
      <trkpt lat="59.9806399" lon="17.7386686">
        <ele>50.6066</ele>
        <time>2013-04-12T18:43:42Z</time>
      </trkpt>
      <trkpt lat="59.9806507" lon="17.7386654">
        <ele>50.126</ele>
        <time>2013-04-12T18:43:43Z</time>
      </trkpt>
      <trkpt lat="59.980661" lon="17.7386565">
        <ele>49.1646</ele>
        <time>2013-04-12T18:43:44Z</time>
      </trkpt>
      <trkpt lat="59.9806746" lon="17.7386486">
        <ele>49.1646</ele>
        <time>2013-04-12T18:43:45Z</time>
      </trkpt>
      <trkpt lat="59.9806926" lon="17.738637">
        <ele>50.126</ele>
        <time>2013-04-12T18:43:46Z</time>
      </trkpt>
      <trkpt lat="59.9807087" lon="17.7386305">
        <ele>50.126</ele>
        <time>2013-04-12T18:43:47Z</time>
      </trkpt>
      <trkpt lat="59.9807215" lon="17.7386291">
        <ele>50.126</ele>
        <time>2013-04-12T18:43:48Z</time>
      </trkpt>
      <trkpt lat="59.9807346" lon="17.738626">
        <ele>49.6453</ele>
        <time>2013-04-12T18:43:49Z</time>
      </trkpt>
      <trkpt lat="59.9807481" lon="17.7386233">
        <ele>49.6453</ele>
        <time>2013-04-12T18:43:50Z</time>
      </trkpt>
      <trkpt lat="59.9807646" lon="17.7386124">
        <ele>50.6066</ele>
        <time>2013-04-12T18:43:51Z</time>
      </trkpt>
      <trkpt lat="59.9807775" lon="17.7386132">
        <ele>50.126</ele>
        <time>2013-04-12T18:43:52Z</time>
      </trkpt>
      <trkpt lat="59.9807872" lon="17.7386145">
        <ele>49.6453</ele>
        <time>2013-04-12T18:43:53Z</time>
      </trkpt>
      <trkpt lat="59.9807995" lon="17.7386121">
        <ele>48.684</ele>
        <time>2013-04-12T18:43:54Z</time>
      </trkpt>
      <trkpt lat="59.980815" lon="17.7386054">
        <ele>48.684</ele>
        <time>2013-04-12T18:43:55Z</time>
      </trkpt>
      <trkpt lat="59.9808315" lon="17.7385971">
        <ele>49.1646</ele>
        <time>2013-04-12T18:43:56Z</time>
      </trkpt>
      <trkpt lat="59.9808465" lon="17.7385871">
        <ele>49.6453</ele>
        <time>2013-04-12T18:43:57Z</time>
      </trkpt>
      <trkpt lat="59.980861" lon="17.7385788">
        <ele>49.1646</ele>
        <time>2013-04-12T18:43:58Z</time>
      </trkpt>
      <trkpt lat="59.9808784" lon="17.7385751">
        <ele>49.1646</ele>
        <time>2013-04-12T18:43:59Z</time>
      </trkpt>
      <trkpt lat="59.9808942" lon="17.7385714">
        <ele>49.6453</ele>
        <time>2013-04-12T18:44:00Z</time>
      </trkpt>
      <trkpt lat="59.9809055" lon="17.7385778">
        <ele>49.1646</ele>
        <time>2013-04-12T18:44:01Z</time>
      </trkpt>
      <trkpt lat="59.9809189" lon="17.7385783">
        <ele>49.1646</ele>
        <time>2013-04-12T18:44:02Z</time>
      </trkpt>
      <trkpt lat="59.980932" lon="17.7385778">
        <ele>49.1646</ele>
        <time>2013-04-12T18:44:03Z</time>
      </trkpt>
      <trkpt lat="59.9809447" lon="17.7385761">
        <ele>48.2034</ele>
        <time>2013-04-12T18:44:04Z</time>
      </trkpt>
      <trkpt lat="59.9809582" lon="17.7385767">
        <ele>47.7225</ele>
        <time>2013-04-12T18:44:05Z</time>
      </trkpt>
      <trkpt lat="59.9809687" lon="17.7385826">
        <ele>46.7612</ele>
        <time>2013-04-12T18:44:06Z</time>
      </trkpt>
      <trkpt lat="59.9809801" lon="17.7385847">
        <ele>46.2806</ele>
        <time>2013-04-12T18:44:07Z</time>
      </trkpt>
      <trkpt lat="59.9809889" lon="17.738586">
        <ele>45.3192</ele>
        <time>2013-04-12T18:44:08Z</time>
      </trkpt>
      <trkpt lat="59.9809993" lon="17.7385813">
        <ele>44.8386</ele>
        <time>2013-04-12T18:44:09Z</time>
      </trkpt>
      <trkpt lat="59.9810143" lon="17.7385745">
        <ele>44.8386</ele>
        <time>2013-04-12T18:44:10Z</time>
      </trkpt>
      <trkpt lat="59.9810307" lon="17.7385644">
        <ele>45.7999</ele>
        <time>2013-04-12T18:44:11Z</time>
      </trkpt>
      <trkpt lat="59.9810481" lon="17.738556">
        <ele>46.2806</ele>
        <time>2013-04-12T18:44:12Z</time>
      </trkpt>
      <trkpt lat="59.9810598" lon="17.7385525">
        <ele>46.7612</ele>
        <time>2013-04-12T18:44:13Z</time>
      </trkpt>
      <trkpt lat="59.9810755" lon="17.7385543">
        <ele>47.2418</ele>
        <time>2013-04-12T18:44:14Z</time>
      </trkpt>
      <trkpt lat="59.9810946" lon="17.7385479">
        <ele>48.2034</ele>
        <time>2013-04-12T18:44:15Z</time>
      </trkpt>
      <trkpt lat="59.9811159" lon="17.7385353">
        <ele>48.684</ele>
        <time>2013-04-12T18:44:16Z</time>
      </trkpt>
      <trkpt lat="59.9811381" lon="17.7385203">
        <ele>50.126</ele>
        <time>2013-04-12T18:44:17Z</time>
      </trkpt>
      <trkpt lat="59.9811561" lon="17.7385068">
        <ele>52.0486</ele>
        <time>2013-04-12T18:44:18Z</time>
      </trkpt>
      <trkpt lat="59.9811759" lon="17.7384953">
        <ele>53.9712</ele>
        <time>2013-04-12T18:44:19Z</time>
      </trkpt>
      <trkpt lat="59.9811987" lon="17.7384773">
        <ele>55.4131</ele>
        <time>2013-04-12T18:44:20Z</time>
      </trkpt>
      <trkpt lat="59.9812138" lon="17.7384736">
        <ele>55.4131</ele>
        <time>2013-04-12T18:44:21Z</time>
      </trkpt>
      <trkpt lat="59.9812386" lon="17.7384607">
        <ele>56.8551</ele>
        <time>2013-04-12T18:44:22Z</time>
      </trkpt>
      <trkpt lat="59.9812693" lon="17.7384442">
        <ele>59.2584</ele>
        <time>2013-04-12T18:44:23Z</time>
      </trkpt>
      <trkpt lat="59.9812883" lon="17.7384393">
        <ele>59.7391</ele>
        <time>2013-04-12T18:44:24Z</time>
      </trkpt>
      <trkpt lat="59.9813068" lon="17.7384367">
        <ele>60.2197</ele>
        <time>2013-04-12T18:44:25Z</time>
      </trkpt>
      <trkpt lat="59.981332" lon="17.7384255">
        <ele>62.1423</ele>
        <time>2013-04-12T18:44:26Z</time>
      </trkpt>
      <trkpt lat="59.9813465" lon="17.7384234">
        <ele>62.6229</ele>
        <time>2013-04-12T18:44:27Z</time>
      </trkpt>
      <trkpt lat="59.9813625" lon="17.7384222">
        <ele>63.1036</ele>
        <time>2013-04-12T18:44:28Z</time>
      </trkpt>
      <trkpt lat="59.9813754" lon="17.7384162">
        <ele>63.1036</ele>
        <time>2013-04-12T18:44:29Z</time>
      </trkpt>
      <trkpt lat="59.9813883" lon="17.7384084">
        <ele>63.5844</ele>
        <time>2013-04-12T18:44:30Z</time>
      </trkpt>
      <trkpt lat="59.9813991" lon="17.738407">
        <ele>63.1036</ele>
        <time>2013-04-12T18:44:31Z</time>
      </trkpt>
      <trkpt lat="59.9814175" lon="17.7383979">
        <ele>64.0651</ele>
        <time>2013-04-12T18:44:32Z</time>
      </trkpt>
      <trkpt lat="59.9814296" lon="17.7383888">
        <ele>64.5457</ele>
        <time>2013-04-12T18:44:33Z</time>
      </trkpt>
      <trkpt lat="59.9814422" lon="17.7383825">
        <ele>65.0264</ele>
        <time>2013-04-12T18:44:34Z</time>
      </trkpt>
      <trkpt lat="59.981449" lon="17.7383832">
        <ele>63.5844</ele>
        <time>2013-04-12T18:44:35Z</time>
      </trkpt>
      <trkpt lat="59.9814573" lon="17.7383834">
        <ele>62.6229</ele>
        <time>2013-04-12T18:44:36Z</time>
      </trkpt>
      <trkpt lat="59.9814681" lon="17.7383871">
        <ele>61.6617</ele>
        <time>2013-04-12T18:44:37Z</time>
      </trkpt>
      <trkpt lat="59.9814757" lon="17.7383898">
        <ele>60.2197</ele>
        <time>2013-04-12T18:44:38Z</time>
      </trkpt>
      <trkpt lat="59.9814852" lon="17.7383773">
        <ele>59.7391</ele>
        <time>2013-04-12T18:44:39Z</time>
      </trkpt>
      <trkpt lat="59.9814934" lon="17.7383696">
        <ele>59.2584</ele>
        <time>2013-04-12T18:44:40Z</time>
      </trkpt>
      <trkpt lat="59.9815048" lon="17.7383664">
        <ele>58.2971</ele>
        <time>2013-04-12T18:44:41Z</time>
      </trkpt>
      <trkpt lat="59.9815161" lon="17.7383674">
        <ele>57.8165</ele>
        <time>2013-04-12T18:44:42Z</time>
      </trkpt>
      <trkpt lat="59.9815293" lon="17.7383685">
        <ele>57.3358</ele>
        <time>2013-04-12T18:44:43Z</time>
      </trkpt>
      <trkpt lat="59.9815422" lon="17.73837">
        <ele>56.8551</ele>
        <time>2013-04-12T18:44:44Z</time>
      </trkpt>
      <trkpt lat="59.9815546" lon="17.7383675">
        <ele>56.8551</ele>
        <time>2013-04-12T18:44:45Z</time>
      </trkpt>
      <trkpt lat="59.9815665" lon="17.7383679">
        <ele>56.8551</ele>
        <time>2013-04-12T18:44:46Z</time>
      </trkpt>
      <trkpt lat="59.9815783" lon="17.738366">
        <ele>56.8551</ele>
        <time>2013-04-12T18:44:47Z</time>
      </trkpt>
      <trkpt lat="59.9815899" lon="17.7383608">
        <ele>56.3745</ele>
        <time>2013-04-12T18:44:48Z</time>
      </trkpt>
      <trkpt lat="59.9816044" lon="17.7383516">
        <ele>56.8551</ele>
        <time>2013-04-12T18:44:49Z</time>
      </trkpt>
      <trkpt lat="59.9816142" lon="17.7383458">
        <ele>56.3745</ele>
        <time>2013-04-12T18:44:50Z</time>
      </trkpt>
      <trkpt lat="59.9816245" lon="17.7383462">
        <ele>55.4131</ele>
        <time>2013-04-12T18:44:51Z</time>
      </trkpt>
      <trkpt lat="59.9816344" lon="17.738344">
        <ele>54.9324</ele>
        <time>2013-04-12T18:44:52Z</time>
      </trkpt>
      <trkpt lat="59.9816467" lon="17.7383399">
        <ele>54.9324</ele>
        <time>2013-04-12T18:44:53Z</time>
      </trkpt>
      <trkpt lat="59.9816612" lon="17.738339">
        <ele>55.4131</ele>
        <time>2013-04-12T18:44:54Z</time>
      </trkpt>
      <trkpt lat="59.9816758" lon="17.7383378">
        <ele>55.8938</ele>
        <time>2013-04-12T18:44:55Z</time>
      </trkpt>
      <trkpt lat="59.9816887" lon="17.7383371">
        <ele>55.4131</ele>
        <time>2013-04-12T18:44:56Z</time>
      </trkpt>
      <trkpt lat="59.981701" lon="17.7383319">
        <ele>55.4131</ele>
        <time>2013-04-12T18:44:57Z</time>
      </trkpt>
      <trkpt lat="59.9817137" lon="17.7383306">
        <ele>54.9324</ele>
        <time>2013-04-12T18:44:58Z</time>
      </trkpt>
      <trkpt lat="59.9817253" lon="17.7383254">
        <ele>54.4518</ele>
        <time>2013-04-12T18:44:59Z</time>
      </trkpt>
      <trkpt lat="59.9817369" lon="17.7383184">
        <ele>54.4518</ele>
        <time>2013-04-12T18:45:00Z</time>
      </trkpt>
      <trkpt lat="59.9817494" lon="17.7383172">
        <ele>53.4905</ele>
        <time>2013-04-12T18:45:01Z</time>
      </trkpt>
      <trkpt lat="59.9817644" lon="17.7383161">
        <ele>53.9712</ele>
        <time>2013-04-12T18:45:02Z</time>
      </trkpt>
      <trkpt lat="59.9817773" lon="17.738311">
        <ele>53.9712</ele>
        <time>2013-04-12T18:45:03Z</time>
      </trkpt>
      <trkpt lat="59.9817894" lon="17.7383039">
        <ele>53.9712</ele>
        <time>2013-04-12T18:45:04Z</time>
      </trkpt>
      <trkpt lat="59.9818012" lon="17.7383001">
        <ele>53.9712</ele>
        <time>2013-04-12T18:45:05Z</time>
      </trkpt>
      <trkpt lat="59.981815" lon="17.7382911">
        <ele>53.9712</ele>
        <time>2013-04-12T18:45:06Z</time>
      </trkpt>
      <trkpt lat="59.9818297" lon="17.738282">
        <ele>53.9712</ele>
        <time>2013-04-12T18:45:07Z</time>
      </trkpt>
      <trkpt lat="59.9818431" lon="17.7382735">
        <ele>53.4905</ele>
        <time>2013-04-12T18:45:08Z</time>
      </trkpt>
      <trkpt lat="59.9818547" lon="17.7382648">
        <ele>53.0098</ele>
        <time>2013-04-12T18:45:09Z</time>
      </trkpt>
      <trkpt lat="59.9818658" lon="17.7382575">
        <ele>52.0486</ele>
        <time>2013-04-12T18:45:10Z</time>
      </trkpt>
      <trkpt lat="59.9818742" lon="17.7382516">
        <ele>51.0872</ele>
        <time>2013-04-12T18:45:11Z</time>
      </trkpt>
      <trkpt lat="59.9818861" lon="17.7382447">
        <ele>50.6066</ele>
        <time>2013-04-12T18:45:12Z</time>
      </trkpt>
      <trkpt lat="59.9818978" lon="17.7382405">
        <ele>50.126</ele>
        <time>2013-04-12T18:45:13Z</time>
      </trkpt>
      <trkpt lat="59.9819089" lon="17.7382374">
        <ele>49.6453</ele>
        <time>2013-04-12T18:45:14Z</time>
      </trkpt>
      <trkpt lat="59.9819225" lon="17.7382298">
        <ele>49.1646</ele>
        <time>2013-04-12T18:45:15Z</time>
      </trkpt>
      <trkpt lat="59.9819328" lon="17.7382281">
        <ele>48.684</ele>
        <time>2013-04-12T18:45:16Z</time>
      </trkpt>
      <trkpt lat="59.9819524" lon="17.7382167">
        <ele>49.6453</ele>
        <time>2013-04-12T18:45:17Z</time>
      </trkpt>
      <trkpt lat="59.9819665" lon="17.7382083">
        <ele>49.6453</ele>
        <time>2013-04-12T18:45:18Z</time>
      </trkpt>
      <trkpt lat="59.9819794" lon="17.7382024">
        <ele>49.1646</ele>
        <time>2013-04-12T18:45:19Z</time>
      </trkpt>
      <trkpt lat="59.9819897" lon="17.7381967">
        <ele>48.684</ele>
        <time>2013-04-12T18:45:20Z</time>
      </trkpt>
      <trkpt lat="59.9820027" lon="17.7381886">
        <ele>48.684</ele>
        <time>2013-04-12T18:45:21Z</time>
      </trkpt>
      <trkpt lat="59.9820128" lon="17.7381846">
        <ele>48.684</ele>
        <time>2013-04-12T18:45:22Z</time>
      </trkpt>
      <trkpt lat="59.9820245" lon="17.7381772">
        <ele>48.2034</ele>
        <time>2013-04-12T18:45:23Z</time>
      </trkpt>
      <trkpt lat="59.9820372" lon="17.7381671">
        <ele>47.7225</ele>
        <time>2013-04-12T18:45:24Z</time>
      </trkpt>
      <trkpt lat="59.9820488" lon="17.7381561">
        <ele>47.2418</ele>
        <time>2013-04-12T18:45:25Z</time>
      </trkpt>
      <trkpt lat="59.9820611" lon="17.7381458">
        <ele>46.7612</ele>
        <time>2013-04-12T18:45:26Z</time>
      </trkpt>
      <trkpt lat="59.9820769" lon="17.7381322">
        <ele>46.7612</ele>
        <time>2013-04-12T18:45:27Z</time>
      </trkpt>
      <trkpt lat="59.9820911" lon="17.7381273">
        <ele>45.7999</ele>
        <time>2013-04-12T18:45:28Z</time>
      </trkpt>
      <trkpt lat="59.9821066" lon="17.7381235">
        <ele>45.7999</ele>
        <time>2013-04-12T18:45:29Z</time>
      </trkpt>
      <trkpt lat="59.9821213" lon="17.7381198">
        <ele>45.3192</ele>
        <time>2013-04-12T18:45:30Z</time>
      </trkpt>
      <trkpt lat="59.9821362" lon="17.7381132">
        <ele>45.7999</ele>
        <time>2013-04-12T18:45:31Z</time>
      </trkpt>
      <trkpt lat="59.9821483" lon="17.7381049">
        <ele>45.3192</ele>
        <time>2013-04-12T18:45:32Z</time>
      </trkpt>
      <trkpt lat="59.9821622" lon="17.7380969">
        <ele>44.8386</ele>
        <time>2013-04-12T18:45:33Z</time>
      </trkpt>
      <trkpt lat="59.9821731" lon="17.7381003">
        <ele>44.358</ele>
        <time>2013-04-12T18:45:34Z</time>
      </trkpt>
      <trkpt lat="59.982188" lon="17.7380959">
        <ele>44.358</ele>
        <time>2013-04-12T18:45:35Z</time>
      </trkpt>
      <trkpt lat="59.9822068" lon="17.7380881">
        <ele>45.3192</ele>
        <time>2013-04-12T18:45:36Z</time>
      </trkpt>
      <trkpt lat="59.9822235" lon="17.7380795">
        <ele>45.7999</ele>
        <time>2013-04-12T18:45:37Z</time>
      </trkpt>
      <trkpt lat="59.9822364" lon="17.7380733">
        <ele>45.7999</ele>
        <time>2013-04-12T18:45:38Z</time>
      </trkpt>
      <trkpt lat="59.9822493" lon="17.7380681">
        <ele>45.3192</ele>
        <time>2013-04-12T18:45:39Z</time>
      </trkpt>
      <trkpt lat="59.9822639" lon="17.7380646">
        <ele>45.3192</ele>
        <time>2013-04-12T18:45:40Z</time>
      </trkpt>
      <trkpt lat="59.9822796" lon="17.7380629">
        <ele>45.7999</ele>
        <time>2013-04-12T18:45:41Z</time>
      </trkpt>
      <trkpt lat="59.9822931" lon="17.7380604">
        <ele>45.7999</ele>
        <time>2013-04-12T18:45:42Z</time>
      </trkpt>
      <trkpt lat="59.9823057" lon="17.7380555">
        <ele>45.7999</ele>
        <time>2013-04-12T18:45:43Z</time>
      </trkpt>
      <trkpt lat="59.982317" lon="17.7380532">
        <ele>45.7999</ele>
        <time>2013-04-12T18:45:44Z</time>
      </trkpt>
      <trkpt lat="59.982329" lon="17.7380496">
        <ele>45.7999</ele>
        <time>2013-04-12T18:45:45Z</time>
      </trkpt>
      <trkpt lat="59.9823451" lon="17.7380469">
        <ele>46.2806</ele>
        <time>2013-04-12T18:45:46Z</time>
      </trkpt>
      <trkpt lat="59.9823605" lon="17.738038">
        <ele>47.2418</ele>
        <time>2013-04-12T18:45:47Z</time>
      </trkpt>
      <trkpt lat="59.982376" lon="17.7380313">
        <ele>47.7225</ele>
        <time>2013-04-12T18:45:48Z</time>
      </trkpt>
      <trkpt lat="59.9823907" lon="17.7380277">
        <ele>47.7225</ele>
        <time>2013-04-12T18:45:49Z</time>
      </trkpt>
      <trkpt lat="59.9824052" lon="17.7380271">
        <ele>47.7225</ele>
        <time>2013-04-12T18:45:50Z</time>
      </trkpt>
      <trkpt lat="59.9824181" lon="17.7380163">
        <ele>48.2034</ele>
        <time>2013-04-12T18:45:51Z</time>
      </trkpt>
      <trkpt lat="59.9824327" lon="17.738009">
        <ele>47.7225</ele>
        <time>2013-04-12T18:45:52Z</time>
      </trkpt>
      <trkpt lat="59.9824478" lon="17.7380042">
        <ele>48.2034</ele>
        <time>2013-04-12T18:45:53Z</time>
      </trkpt>
      <trkpt lat="59.9824568" lon="17.7380131">
        <ele>47.2418</ele>
        <time>2013-04-12T18:45:54Z</time>
      </trkpt>
      <trkpt lat="59.9824699" lon="17.7380207">
        <ele>47.2418</ele>
        <time>2013-04-12T18:45:55Z</time>
      </trkpt>
      <trkpt lat="59.9824848" lon="17.7380237">
        <ele>47.2418</ele>
        <time>2013-04-12T18:45:56Z</time>
      </trkpt>
      <trkpt lat="59.9824984" lon="17.7380262">
        <ele>46.7612</ele>
        <time>2013-04-12T18:45:57Z</time>
      </trkpt>
      <trkpt lat="59.9825154" lon="17.7380291">
        <ele>46.7612</ele>
        <time>2013-04-12T18:45:58Z</time>
      </trkpt>
      <trkpt lat="59.9825332" lon="17.7380287">
        <ele>47.2418</ele>
        <time>2013-04-12T18:45:59Z</time>
      </trkpt>
      <trkpt lat="59.9825516" lon="17.738033">
        <ele>46.7612</ele>
        <time>2013-04-12T18:46:00Z</time>
      </trkpt>
      <trkpt lat="59.9825674" lon="17.7380339">
        <ele>46.2806</ele>
        <time>2013-04-12T18:46:01Z</time>
      </trkpt>
      <trkpt lat="59.9825855" lon="17.7380301">
        <ele>46.2806</ele>
        <time>2013-04-12T18:46:02Z</time>
      </trkpt>
      <trkpt lat="59.9826057" lon="17.7380265">
        <ele>46.7612</ele>
        <time>2013-04-12T18:46:03Z</time>
      </trkpt>
      <trkpt lat="59.9826217" lon="17.7380199">
        <ele>46.7612</ele>
        <time>2013-04-12T18:46:04Z</time>
      </trkpt>
      <trkpt lat="59.9826362" lon="17.7380176">
        <ele>46.2806</ele>
        <time>2013-04-12T18:46:05Z</time>
      </trkpt>
      <trkpt lat="59.9826486" lon="17.7380254">
        <ele>46.2806</ele>
        <time>2013-04-12T18:46:06Z</time>
      </trkpt>
      <trkpt lat="59.98266" lon="17.7380344">
        <ele>45.7999</ele>
        <time>2013-04-12T18:46:07Z</time>
      </trkpt>
      <trkpt lat="59.9826735" lon="17.7380423">
        <ele>45.3192</ele>
        <time>2013-04-12T18:46:08Z</time>
      </trkpt>
      <trkpt lat="59.982688" lon="17.7380438">
        <ele>44.8386</ele>
        <time>2013-04-12T18:46:09Z</time>
      </trkpt>
      <trkpt lat="59.9827015" lon="17.7380474">
        <ele>44.8386</ele>
        <time>2013-04-12T18:46:10Z</time>
      </trkpt>
      <trkpt lat="59.9827181" lon="17.7380525">
        <ele>44.8386</ele>
        <time>2013-04-12T18:46:11Z</time>
      </trkpt>
      <trkpt lat="59.9827324" lon="17.7380557">
        <ele>44.8386</ele>
        <time>2013-04-12T18:46:12Z</time>
      </trkpt>
      <trkpt lat="59.982741" lon="17.738058">
        <ele>44.358</ele>
        <time>2013-04-12T18:46:13Z</time>
      </trkpt>
      <trkpt lat="59.9827532" lon="17.738061">
        <ele>43.8773</ele>
        <time>2013-04-12T18:46:14Z</time>
      </trkpt>
      <trkpt lat="59.9827688" lon="17.7380625">
        <ele>43.8773</ele>
        <time>2013-04-12T18:46:15Z</time>
      </trkpt>
      <trkpt lat="59.9827864" lon="17.738064">
        <ele>44.358</ele>
        <time>2013-04-12T18:46:16Z</time>
      </trkpt>
      <trkpt lat="59.9828057" lon="17.7380685">
        <ele>45.3192</ele>
        <time>2013-04-12T18:46:17Z</time>
      </trkpt>
      <trkpt lat="59.9828313" lon="17.7380624">
        <ele>48.2034</ele>
        <time>2013-04-12T18:46:18Z</time>
      </trkpt>
      <trkpt lat="59.9828439" lon="17.7380671">
        <ele>49.1646</ele>
        <time>2013-04-12T18:46:19Z</time>
      </trkpt>
      <trkpt lat="59.9828564" lon="17.7380747">
        <ele>50.126</ele>
        <time>2013-04-12T18:46:20Z</time>
      </trkpt>
      <trkpt lat="59.9828776" lon="17.7380712">
        <ele>51.5679</ele>
        <time>2013-04-12T18:46:21Z</time>
      </trkpt>
      <trkpt lat="59.9828982" lon="17.7380674">
        <ele>53.0098</ele>
        <time>2013-04-12T18:46:22Z</time>
      </trkpt>
      <trkpt lat="59.9829163" lon="17.7380703">
        <ele>54.4518</ele>
        <time>2013-04-12T18:46:23Z</time>
      </trkpt>
      <trkpt lat="59.9829329" lon="17.7380676">
        <ele>54.9324</ele>
        <time>2013-04-12T18:46:24Z</time>
      </trkpt>
      <trkpt lat="59.982949" lon="17.7380684">
        <ele>55.4131</ele>
        <time>2013-04-12T18:46:25Z</time>
      </trkpt>
      <trkpt lat="59.9829667" lon="17.7380717">
        <ele>56.3745</ele>
        <time>2013-04-12T18:46:26Z</time>
      </trkpt>
      <trkpt lat="59.9829812" lon="17.7380762">
        <ele>56.3745</ele>
        <time>2013-04-12T18:46:27Z</time>
      </trkpt>
      <trkpt lat="59.9829973" lon="17.7380773">
        <ele>56.3745</ele>
        <time>2013-04-12T18:46:28Z</time>
      </trkpt>
      <trkpt lat="59.9830164" lon="17.7380785">
        <ele>56.8551</ele>
        <time>2013-04-12T18:46:29Z</time>
      </trkpt>
      <trkpt lat="59.9830351" lon="17.7380748">
        <ele>58.2971</ele>
        <time>2013-04-12T18:46:30Z</time>
      </trkpt>
      <trkpt lat="59.983049" lon="17.7380712">
        <ele>59.2584</ele>
        <time>2013-04-12T18:46:31Z</time>
      </trkpt>
      <trkpt lat="59.9830597" lon="17.7380619">
        <ele>59.7391</ele>
        <time>2013-04-12T18:46:32Z</time>
      </trkpt>
      <trkpt lat="59.9830754" lon="17.738056">
        <ele>60.7003</ele>
        <time>2013-04-12T18:46:33Z</time>
      </trkpt>
      <trkpt lat="59.9830877" lon="17.7380562">
        <ele>60.2197</ele>
        <time>2013-04-12T18:46:34Z</time>
      </trkpt>
      <trkpt lat="59.9831027" lon="17.7380551">
        <ele>60.7003</ele>
        <time>2013-04-12T18:46:35Z</time>
      </trkpt>
      <trkpt lat="59.9831159" lon="17.7380551">
        <ele>60.2197</ele>
        <time>2013-04-12T18:46:36Z</time>
      </trkpt>
      <trkpt lat="59.9831315" lon="17.7380553">
        <ele>60.7003</ele>
        <time>2013-04-12T18:46:37Z</time>
      </trkpt>
      <trkpt lat="59.9831416" lon="17.7380577">
        <ele>59.7391</ele>
        <time>2013-04-12T18:46:38Z</time>
      </trkpt>
      <trkpt lat="59.9831598" lon="17.7380568">
        <ele>60.2197</ele>
        <time>2013-04-12T18:46:39Z</time>
      </trkpt>
      <trkpt lat="59.9831735" lon="17.7380557">
        <ele>60.2197</ele>
        <time>2013-04-12T18:46:40Z</time>
      </trkpt>
      <trkpt lat="59.9831901" lon="17.7380494">
        <ele>61.181</ele>
        <time>2013-04-12T18:46:41Z</time>
      </trkpt>
      <trkpt lat="59.9832039" lon="17.7380441">
        <ele>61.6617</ele>
        <time>2013-04-12T18:46:42Z</time>
      </trkpt>
      <trkpt lat="59.9832175" lon="17.7380342">
        <ele>62.1423</ele>
        <time>2013-04-12T18:46:43Z</time>
      </trkpt>
      <trkpt lat="59.9832319" lon="17.7380268">
        <ele>62.6229</ele>
        <time>2013-04-12T18:46:44Z</time>
      </trkpt>
      <trkpt lat="59.983248" lon="17.7380291">
        <ele>62.6229</ele>
        <time>2013-04-12T18:46:45Z</time>
      </trkpt>
      <trkpt lat="59.9832609" lon="17.7380262">
        <ele>62.6229</ele>
        <time>2013-04-12T18:46:46Z</time>
      </trkpt>
      <trkpt lat="59.9832761" lon="17.7380219">
        <ele>62.6229</ele>
        <time>2013-04-12T18:46:47Z</time>
      </trkpt>
      <trkpt lat="59.9832871" lon="17.7380229">
        <ele>62.1423</ele>
        <time>2013-04-12T18:46:48Z</time>
      </trkpt>
      <trkpt lat="59.9833055" lon="17.738019">
        <ele>62.6229</ele>
        <time>2013-04-12T18:46:49Z</time>
      </trkpt>
      <trkpt lat="59.9833183" lon="17.7380185">
        <ele>62.6229</ele>
        <time>2013-04-12T18:46:50Z</time>
      </trkpt>
      <trkpt lat="59.9833338" lon="17.7380142">
        <ele>62.6229</ele>
        <time>2013-04-12T18:46:51Z</time>
      </trkpt>
      <trkpt lat="59.9833474" lon="17.7380097">
        <ele>63.1036</ele>
        <time>2013-04-12T18:46:52Z</time>
      </trkpt>
      <trkpt lat="59.9833553" lon="17.738007">
        <ele>62.1423</ele>
        <time>2013-04-12T18:46:53Z</time>
      </trkpt>
      <trkpt lat="59.9833656" lon="17.7380026">
        <ele>61.6617</ele>
        <time>2013-04-12T18:46:54Z</time>
      </trkpt>
      <trkpt lat="59.9833792" lon="17.7380023">
        <ele>61.181</ele>
        <time>2013-04-12T18:46:55Z</time>
      </trkpt>
      <trkpt lat="59.9833884" lon="17.7380081">
        <ele>59.7391</ele>
        <time>2013-04-12T18:46:56Z</time>
      </trkpt>
      <trkpt lat="59.9834021" lon="17.7380076">
        <ele>59.2584</ele>
        <time>2013-04-12T18:46:57Z</time>
      </trkpt>
      <trkpt lat="59.9834178" lon="17.7380146">
        <ele>59.2584</ele>
        <time>2013-04-12T18:46:58Z</time>
      </trkpt>
      <trkpt lat="59.9834268" lon="17.7380234">
        <ele>58.7777</ele>
        <time>2013-04-12T18:46:59Z</time>
      </trkpt>
      <trkpt lat="59.9834355" lon="17.7380242">
        <ele>58.2971</ele>
        <time>2013-04-12T18:47:00Z</time>
      </trkpt>
      <trkpt lat="59.9834416" lon="17.7380242">
        <ele>57.3358</ele>
        <time>2013-04-12T18:47:01Z</time>
      </trkpt>
      <trkpt lat="59.9834504" lon="17.7380282">
        <ele>56.8551</ele>
        <time>2013-04-12T18:47:02Z</time>
      </trkpt>
      <trkpt lat="59.9834603" lon="17.7380282">
        <ele>55.4131</ele>
        <time>2013-04-12T18:47:03Z</time>
      </trkpt>
      <trkpt lat="59.983469" lon="17.7380277">
        <ele>54.9324</ele>
        <time>2013-04-12T18:47:04Z</time>
      </trkpt>
      <trkpt lat="59.9834858" lon="17.738022">
        <ele>55.4131</ele>
        <time>2013-04-12T18:47:05Z</time>
      </trkpt>
      <trkpt lat="59.9835003" lon="17.7380169">
        <ele>54.9324</ele>
        <time>2013-04-12T18:47:06Z</time>
      </trkpt>
      <trkpt lat="59.9835188" lon="17.7380101">
        <ele>55.8938</ele>
        <time>2013-04-12T18:47:07Z</time>
      </trkpt>
      <trkpt lat="59.9835368" lon="17.7380013">
        <ele>56.8551</ele>
        <time>2013-04-12T18:47:08Z</time>
      </trkpt>
      <trkpt lat="59.9835531" lon="17.7379933">
        <ele>56.8551</ele>
        <time>2013-04-12T18:47:09Z</time>
      </trkpt>
      <trkpt lat="59.9835717" lon="17.7379899">
        <ele>57.3358</ele>
        <time>2013-04-12T18:47:10Z</time>
      </trkpt>
      <trkpt lat="59.9835837" lon="17.7379878">
        <ele>56.3745</ele>
        <time>2013-04-12T18:47:11Z</time>
      </trkpt>
      <trkpt lat="59.9835952" lon="17.73798">
        <ele>55.8938</ele>
        <time>2013-04-12T18:47:12Z</time>
      </trkpt>
      <trkpt lat="59.9836083" lon="17.7379732">
        <ele>55.4131</ele>
        <time>2013-04-12T18:47:13Z</time>
      </trkpt>
      <trkpt lat="59.9836188" lon="17.7379825">
        <ele>54.4518</ele>
        <time>2013-04-12T18:47:14Z</time>
      </trkpt>
      <trkpt lat="59.9836334" lon="17.7379888">
        <ele>54.4518</ele>
        <time>2013-04-12T18:47:15Z</time>
      </trkpt>
      <trkpt lat="59.9836458" lon="17.7379883">
        <ele>53.9712</ele>
        <time>2013-04-12T18:47:16Z</time>
      </trkpt>
      <trkpt lat="59.9836618" lon="17.7379861">
        <ele>54.4518</ele>
        <time>2013-04-12T18:47:17Z</time>
      </trkpt>
      <trkpt lat="59.9836883" lon="17.737969">
        <ele>55.8938</ele>
        <time>2013-04-12T18:47:18Z</time>
      </trkpt>
      <trkpt lat="59.9837126" lon="17.737957">
        <ele>57.3358</ele>
        <time>2013-04-12T18:47:19Z</time>
      </trkpt>
      <trkpt lat="59.9837354" lon="17.7379468">
        <ele>58.2971</ele>
        <time>2013-04-12T18:47:20Z</time>
      </trkpt>
      <trkpt lat="59.9837561" lon="17.7379257">
        <ele>59.2584</ele>
        <time>2013-04-12T18:47:21Z</time>
      </trkpt>
      <trkpt lat="59.9837694" lon="17.7379131">
        <ele>59.2584</ele>
        <time>2013-04-12T18:47:22Z</time>
      </trkpt>
      <trkpt lat="59.983785" lon="17.7379115">
        <ele>58.7777</ele>
        <time>2013-04-12T18:47:23Z</time>
      </trkpt>
      <trkpt lat="59.9838024" lon="17.7379075">
        <ele>59.7391</ele>
        <time>2013-04-12T18:47:24Z</time>
      </trkpt>
      <trkpt lat="59.9838218" lon="17.7378992">
        <ele>60.7003</ele>
        <time>2013-04-12T18:47:25Z</time>
      </trkpt>
      <trkpt lat="59.983836" lon="17.7378972">
        <ele>60.2197</ele>
        <time>2013-04-12T18:47:26Z</time>
      </trkpt>
      <trkpt lat="59.9838541" lon="17.7378966">
        <ele>61.181</ele>
        <time>2013-04-12T18:47:27Z</time>
      </trkpt>
      <trkpt lat="59.9838744" lon="17.7378905">
        <ele>62.1423</ele>
        <time>2013-04-12T18:47:28Z</time>
      </trkpt>
      <trkpt lat="59.9838881" lon="17.7378888">
        <ele>62.1423</ele>
        <time>2013-04-12T18:47:29Z</time>
      </trkpt>
      <trkpt lat="59.9838997" lon="17.7378837">
        <ele>62.1423</ele>
        <time>2013-04-12T18:47:30Z</time>
      </trkpt>
      <trkpt lat="59.9839129" lon="17.7378786">
        <ele>62.1423</ele>
        <time>2013-04-12T18:47:31Z</time>
      </trkpt>
      <trkpt lat="59.983922" lon="17.7378789">
        <ele>61.6617</ele>
        <time>2013-04-12T18:47:32Z</time>
      </trkpt>
      <trkpt lat="59.9839381" lon="17.7378773">
        <ele>61.6617</ele>
        <time>2013-04-12T18:47:33Z</time>
      </trkpt>
      <trkpt lat="59.9839559" lon="17.7378737">
        <ele>62.1423</ele>
        <time>2013-04-12T18:47:34Z</time>
      </trkpt>
      <trkpt lat="59.9839733" lon="17.7378727">
        <ele>61.6617</ele>
        <time>2013-04-12T18:47:35Z</time>
      </trkpt>
      <trkpt lat="59.9839887" lon="17.7378754">
        <ele>61.6617</ele>
        <time>2013-04-12T18:47:36Z</time>
      </trkpt>
      <trkpt lat="59.9840036" lon="17.7378713">
        <ele>61.181</ele>
        <time>2013-04-12T18:47:37Z</time>
      </trkpt>
      <trkpt lat="59.9840161" lon="17.7378671">
        <ele>60.2197</ele>
        <time>2013-04-12T18:47:38Z</time>
      </trkpt>
      <trkpt lat="59.9840279" lon="17.7378697">
        <ele>59.7391</ele>
        <time>2013-04-12T18:47:39Z</time>
      </trkpt>
      <trkpt lat="59.9840338" lon="17.7378749">
        <ele>58.2971</ele>
        <time>2013-04-12T18:47:40Z</time>
      </trkpt>
      <trkpt lat="59.9840451" lon="17.7378744">
        <ele>57.8165</ele>
        <time>2013-04-12T18:47:41Z</time>
      </trkpt>
      <trkpt lat="59.9840576" lon="17.737876">
        <ele>56.8551</ele>
        <time>2013-04-12T18:47:42Z</time>
      </trkpt>
      <trkpt lat="59.9840784" lon="17.7378723">
        <ele>57.8165</ele>
        <time>2013-04-12T18:47:43Z</time>
      </trkpt>
      <trkpt lat="59.9840893" lon="17.7378798">
        <ele>57.8165</ele>
        <time>2013-04-12T18:47:44Z</time>
      </trkpt>
      <trkpt lat="59.9840979" lon="17.7378895">
        <ele>57.3358</ele>
        <time>2013-04-12T18:47:45Z</time>
      </trkpt>
      <trkpt lat="59.9841083" lon="17.7378964">
        <ele>57.8165</ele>
        <time>2013-04-12T18:47:46Z</time>
      </trkpt>
      <trkpt lat="59.9841214" lon="17.7378999">
        <ele>58.2971</ele>
        <time>2013-04-12T18:47:47Z</time>
      </trkpt>
      <trkpt lat="59.9841364" lon="17.7379023">
        <ele>58.7777</ele>
        <time>2013-04-12T18:47:48Z</time>
      </trkpt>
      <trkpt lat="59.9841548" lon="17.7378976">
        <ele>58.7777</ele>
        <time>2013-04-12T18:47:49Z</time>
      </trkpt>
      <trkpt lat="59.9841778" lon="17.7378899">
        <ele>59.7391</ele>
        <time>2013-04-12T18:47:50Z</time>
      </trkpt>
      <trkpt lat="59.984196" lon="17.7378828">
        <ele>60.2197</ele>
        <time>2013-04-12T18:47:51Z</time>
      </trkpt>
      <trkpt lat="59.9842151" lon="17.7378791">
        <ele>60.7003</ele>
        <time>2013-04-12T18:47:52Z</time>
      </trkpt>
      <trkpt lat="59.9842295" lon="17.7378785">
        <ele>60.2197</ele>
        <time>2013-04-12T18:47:53Z</time>
      </trkpt>
      <trkpt lat="59.9842429" lon="17.7378773">
        <ele>59.2584</ele>
        <time>2013-04-12T18:47:54Z</time>
      </trkpt>
      <trkpt lat="59.9842514" lon="17.7378827">
        <ele>58.2971</ele>
        <time>2013-04-12T18:47:55Z</time>
      </trkpt>
      <trkpt lat="59.9842647" lon="17.7378835">
        <ele>58.2971</ele>
        <time>2013-04-12T18:47:56Z</time>
      </trkpt>
      <trkpt lat="59.984273" lon="17.7378895">
        <ele>56.8551</ele>
        <time>2013-04-12T18:47:57Z</time>
      </trkpt>
      <trkpt lat="59.9842826" lon="17.7378945">
        <ele>55.8938</ele>
        <time>2013-04-12T18:47:58Z</time>
      </trkpt>
      <trkpt lat="59.9842905" lon="17.7378982">
        <ele>54.4518</ele>
        <time>2013-04-12T18:47:59Z</time>
      </trkpt>
      <trkpt lat="59.9842995" lon="17.7379065">
        <ele>53.4905</ele>
        <time>2013-04-12T18:48:00Z</time>
      </trkpt>
      <trkpt lat="59.9843063" lon="17.7379157">
        <ele>52.0486</ele>
        <time>2013-04-12T18:48:01Z</time>
      </trkpt>
      <trkpt lat="59.9843178" lon="17.7379236">
        <ele>51.0872</ele>
        <time>2013-04-12T18:48:02Z</time>
      </trkpt>
      <trkpt lat="59.9843291" lon="17.7379314">
        <ele>50.126</ele>
        <time>2013-04-12T18:48:03Z</time>
      </trkpt>
      <trkpt lat="59.9843405" lon="17.7379401">
        <ele>49.1646</ele>
        <time>2013-04-12T18:48:04Z</time>
      </trkpt>
      <trkpt lat="59.9843565" lon="17.7379438">
        <ele>48.684</ele>
        <time>2013-04-12T18:48:05Z</time>
      </trkpt>
      <trkpt lat="59.9843727" lon="17.7379464">
        <ele>48.2034</ele>
        <time>2013-04-12T18:48:06Z</time>
      </trkpt>
      <trkpt lat="59.9843919" lon="17.7379441">
        <ele>48.684</ele>
        <time>2013-04-12T18:48:07Z</time>
      </trkpt>
      <trkpt lat="59.9844064" lon="17.7379454">
        <ele>48.2034</ele>
        <time>2013-04-12T18:48:08Z</time>
      </trkpt>
      <trkpt lat="59.9844156" lon="17.7379531">
        <ele>46.7612</ele>
        <time>2013-04-12T18:48:09Z</time>
      </trkpt>
      <trkpt lat="59.9844259" lon="17.7379587">
        <ele>45.7999</ele>
        <time>2013-04-12T18:48:10Z</time>
      </trkpt>
      <trkpt lat="59.9844359" lon="17.7379632">
        <ele>44.8386</ele>
        <time>2013-04-12T18:48:11Z</time>
      </trkpt>
      <trkpt lat="59.9844487" lon="17.737965">
        <ele>44.358</ele>
        <time>2013-04-12T18:48:12Z</time>
      </trkpt>
      <trkpt lat="59.9844595" lon="17.7379693">
        <ele>43.3966</ele>
        <time>2013-04-12T18:48:13Z</time>
      </trkpt>
      <trkpt lat="59.9844726" lon="17.7379739">
        <ele>42.916</ele>
        <time>2013-04-12T18:48:14Z</time>
      </trkpt>
      <trkpt lat="59.9844804" lon="17.7379804">
        <ele>41.9547</ele>
        <time>2013-04-12T18:48:15Z</time>
      </trkpt>
      <trkpt lat="59.984488" lon="17.7379838">
        <ele>40.9934</ele>
        <time>2013-04-12T18:48:16Z</time>
      </trkpt>
      <trkpt lat="59.9844975" lon="17.7379893">
        <ele>40.5128</ele>
        <time>2013-04-12T18:48:17Z</time>
      </trkpt>
      <trkpt lat="59.9845104" lon="17.7379946">
        <ele>40.0321</ele>
        <time>2013-04-12T18:48:18Z</time>
      </trkpt>
      <trkpt lat="59.9845224" lon="17.7380024">
        <ele>39.0707</ele>
        <time>2013-04-12T18:48:19Z</time>
      </trkpt>
      <trkpt lat="59.9845327" lon="17.7380123">
        <ele>38.5901</ele>
        <time>2013-04-12T18:48:20Z</time>
      </trkpt>
      <trkpt lat="59.9845429" lon="17.7380154">
        <ele>38.1094</ele>
        <time>2013-04-12T18:48:21Z</time>
      </trkpt>
      <trkpt lat="59.9845621" lon="17.7380136">
        <ele>39.0707</ele>
        <time>2013-04-12T18:48:22Z</time>
      </trkpt>
      <trkpt lat="59.9845741" lon="17.738014">
        <ele>39.0707</ele>
        <time>2013-04-12T18:48:23Z</time>
      </trkpt>
      <trkpt lat="59.9845839" lon="17.7380225">
        <ele>38.5901</ele>
        <time>2013-04-12T18:48:24Z</time>
      </trkpt>
      <trkpt lat="59.9845923" lon="17.7380302">
        <ele>37.6287</ele>
        <time>2013-04-12T18:48:25Z</time>
      </trkpt>
      <trkpt lat="59.9846014" lon="17.7380349">
        <ele>37.1481</ele>
        <time>2013-04-12T18:48:26Z</time>
      </trkpt>
      <trkpt lat="59.9846112" lon="17.7380426">
        <ele>36.1868</ele>
        <time>2013-04-12T18:48:27Z</time>
      </trkpt>
      <trkpt lat="59.9846223" lon="17.7380472">
        <ele>36.6675</ele>
        <time>2013-04-12T18:48:28Z</time>
      </trkpt>
      <trkpt lat="59.9846326" lon="17.7380597">
        <ele>36.1868</ele>
        <time>2013-04-12T18:48:29Z</time>
      </trkpt>
      <trkpt lat="59.9846464" lon="17.7380687">
        <ele>36.1868</ele>
        <time>2013-04-12T18:48:30Z</time>
      </trkpt>
      <trkpt lat="59.9846622" lon="17.7380692">
        <ele>36.1868</ele>
        <time>2013-04-12T18:48:31Z</time>
      </trkpt>
      <trkpt lat="59.9846736" lon="17.7380753">
        <ele>35.7061</ele>
        <time>2013-04-12T18:48:32Z</time>
      </trkpt>
      <trkpt lat="59.9846847" lon="17.7380835">
        <ele>35.2255</ele>
        <time>2013-04-12T18:48:33Z</time>
      </trkpt>
      <trkpt lat="59.9846959" lon="17.7380902">
        <ele>35.2255</ele>
        <time>2013-04-12T18:48:34Z</time>
      </trkpt>
      <trkpt lat="59.9847083" lon="17.7380941">
        <ele>35.2255</ele>
        <time>2013-04-12T18:48:35Z</time>
      </trkpt>
      <trkpt lat="59.9847239" lon="17.7380971">
        <ele>35.2255</ele>
        <time>2013-04-12T18:48:36Z</time>
      </trkpt>
      <trkpt lat="59.9847387" lon="17.7381012">
        <ele>35.2255</ele>
        <time>2013-04-12T18:48:37Z</time>
      </trkpt>
      <trkpt lat="59.9847537" lon="17.7381065">
        <ele>35.2255</ele>
        <time>2013-04-12T18:48:38Z</time>
      </trkpt>
      <trkpt lat="59.9847657" lon="17.7381136">
        <ele>35.2255</ele>
        <time>2013-04-12T18:48:39Z</time>
      </trkpt>
      <trkpt lat="59.9847801" lon="17.7381171">
        <ele>35.2255</ele>
        <time>2013-04-12T18:48:40Z</time>
      </trkpt>
      <trkpt lat="59.9847964" lon="17.7381185">
        <ele>35.2255</ele>
        <time>2013-04-12T18:48:41Z</time>
      </trkpt>
      <trkpt lat="59.9848274" lon="17.7381089">
        <ele>38.5901</ele>
        <time>2013-04-12T18:48:42Z</time>
      </trkpt>
      <trkpt lat="59.9848491" lon="17.7380988">
        <ele>41.474</ele>
        <time>2013-04-12T18:48:43Z</time>
      </trkpt>
      <trkpt lat="59.984876" lon="17.7380905">
        <ele>43.8773</ele>
        <time>2013-04-12T18:48:44Z</time>
      </trkpt>
      <trkpt lat="59.9848919" lon="17.73809">
        <ele>44.358</ele>
        <time>2013-04-12T18:48:45Z</time>
      </trkpt>
      <trkpt lat="59.9849051" lon="17.7380976">
        <ele>44.8386</ele>
        <time>2013-04-12T18:48:46Z</time>
      </trkpt>
      <trkpt lat="59.9849216" lon="17.7381031">
        <ele>44.8386</ele>
        <time>2013-04-12T18:48:47Z</time>
      </trkpt>
      <trkpt lat="59.9849342" lon="17.7381126">
        <ele>44.8386</ele>
        <time>2013-04-12T18:48:48Z</time>
      </trkpt>
      <trkpt lat="59.9849491" lon="17.738119">
        <ele>44.358</ele>
        <time>2013-04-12T18:48:49Z</time>
      </trkpt>
      <trkpt lat="59.9849663" lon="17.7381234">
        <ele>44.8386</ele>
        <time>2013-04-12T18:48:50Z</time>
      </trkpt>
      <trkpt lat="59.9849833" lon="17.7381255">
        <ele>45.3192</ele>
        <time>2013-04-12T18:48:51Z</time>
      </trkpt>
      <trkpt lat="59.9850004" lon="17.7381247">
        <ele>45.7999</ele>
        <time>2013-04-12T18:48:52Z</time>
      </trkpt>
      <trkpt lat="59.9850153" lon="17.7381243">
        <ele>45.7999</ele>
        <time>2013-04-12T18:48:53Z</time>
      </trkpt>
      <trkpt lat="59.9850284" lon="17.7381241">
        <ele>45.7999</ele>
        <time>2013-04-12T18:48:54Z</time>
      </trkpt>
      <trkpt lat="59.9850439" lon="17.7381223">
        <ele>46.7612</ele>
        <time>2013-04-12T18:48:55Z</time>
      </trkpt>
      <trkpt lat="59.9850595" lon="17.7381174">
        <ele>47.7225</ele>
        <time>2013-04-12T18:48:56Z</time>
      </trkpt>
      <trkpt lat="59.9850729" lon="17.7381132">
        <ele>47.7225</ele>
        <time>2013-04-12T18:48:57Z</time>
      </trkpt>
      <trkpt lat="59.9850864" lon="17.7381126">
        <ele>48.2034</ele>
        <time>2013-04-12T18:48:58Z</time>
      </trkpt>
      <trkpt lat="59.9851004" lon="17.7381156">
        <ele>48.2034</ele>
        <time>2013-04-12T18:48:59Z</time>
      </trkpt>
      <trkpt lat="59.9851144" lon="17.7381183">
        <ele>48.2034</ele>
        <time>2013-04-12T18:49:00Z</time>
      </trkpt>
      <trkpt lat="59.9851284" lon="17.7381178">
        <ele>48.684</ele>
        <time>2013-04-12T18:49:01Z</time>
      </trkpt>
      <trkpt lat="59.9851435" lon="17.7381182">
        <ele>48.684</ele>
        <time>2013-04-12T18:49:02Z</time>
      </trkpt>
      <trkpt lat="59.9851574" lon="17.738122">
        <ele>48.684</ele>
        <time>2013-04-12T18:49:03Z</time>
      </trkpt>
      <trkpt lat="59.9851763" lon="17.7381225">
        <ele>49.6453</ele>
        <time>2013-04-12T18:49:04Z</time>
      </trkpt>
      <trkpt lat="59.9851916" lon="17.738124">
        <ele>50.126</ele>
        <time>2013-04-12T18:49:05Z</time>
      </trkpt>
      <trkpt lat="59.9852054" lon="17.7381292">
        <ele>50.126</ele>
        <time>2013-04-12T18:49:06Z</time>
      </trkpt>
      <trkpt lat="59.9852193" lon="17.7381324">
        <ele>49.6453</ele>
        <time>2013-04-12T18:49:07Z</time>
      </trkpt>
      <trkpt lat="59.9852324" lon="17.73814">
        <ele>49.6453</ele>
        <time>2013-04-12T18:49:08Z</time>
      </trkpt>
      <trkpt lat="59.9852461" lon="17.7381471">
        <ele>49.1646</ele>
        <time>2013-04-12T18:49:09Z</time>
      </trkpt>
      <trkpt lat="59.9852634" lon="17.7381539">
        <ele>49.6453</ele>
        <time>2013-04-12T18:49:10Z</time>
      </trkpt>
      <trkpt lat="59.9852791" lon="17.7381622">
        <ele>49.6453</ele>
        <time>2013-04-12T18:49:11Z</time>
      </trkpt>
      <trkpt lat="59.9852924" lon="17.7381686">
        <ele>49.6453</ele>
        <time>2013-04-12T18:49:12Z</time>
      </trkpt>
      <trkpt lat="59.9853045" lon="17.7381738">
        <ele>49.6453</ele>
        <time>2013-04-12T18:49:13Z</time>
      </trkpt>
      <trkpt lat="59.9853173" lon="17.7381789">
        <ele>49.1646</ele>
        <time>2013-04-12T18:49:14Z</time>
      </trkpt>
      <trkpt lat="59.9853307" lon="17.7381839">
        <ele>48.684</ele>
        <time>2013-04-12T18:49:15Z</time>
      </trkpt>
      <trkpt lat="59.9853466" lon="17.7381878">
        <ele>48.684</ele>
        <time>2013-04-12T18:49:16Z</time>
      </trkpt>
      <trkpt lat="59.985365" lon="17.7381917">
        <ele>49.1646</ele>
        <time>2013-04-12T18:49:17Z</time>
      </trkpt>
      <trkpt lat="59.9853773" lon="17.7381977">
        <ele>49.1646</ele>
        <time>2013-04-12T18:49:18Z</time>
      </trkpt>
      <trkpt lat="59.9853893" lon="17.738201">
        <ele>48.684</ele>
        <time>2013-04-12T18:49:19Z</time>
      </trkpt>
      <trkpt lat="59.9854015" lon="17.7382015">
        <ele>48.684</ele>
        <time>2013-04-12T18:49:20Z</time>
      </trkpt>
      <trkpt lat="59.9854138" lon="17.7382055">
        <ele>48.684</ele>
        <time>2013-04-12T18:49:21Z</time>
      </trkpt>
      <trkpt lat="59.9854263" lon="17.7382122">
        <ele>48.684</ele>
        <time>2013-04-12T18:49:22Z</time>
      </trkpt>
      <trkpt lat="59.9854366" lon="17.7382194">
        <ele>48.684</ele>
        <time>2013-04-12T18:49:23Z</time>
      </trkpt>
      <trkpt lat="59.9854506" lon="17.7382261">
        <ele>48.2034</ele>
        <time>2013-04-12T18:49:24Z</time>
      </trkpt>
      <trkpt lat="59.9854677" lon="17.7382313">
        <ele>48.2034</ele>
        <time>2013-04-12T18:49:25Z</time>
      </trkpt>
      <trkpt lat="59.9854816" lon="17.7382348">
        <ele>48.2034</ele>
        <time>2013-04-12T18:49:26Z</time>
      </trkpt>
      <trkpt lat="59.9854959" lon="17.7382406">
        <ele>48.2034</ele>
        <time>2013-04-12T18:49:27Z</time>
      </trkpt>
      <trkpt lat="59.9855081" lon="17.7382556">
        <ele>47.7225</ele>
        <time>2013-04-12T18:49:28Z</time>
      </trkpt>
      <trkpt lat="59.9855219" lon="17.7382624">
        <ele>47.7225</ele>
        <time>2013-04-12T18:49:29Z</time>
      </trkpt>
      <trkpt lat="59.9855359" lon="17.7382707">
        <ele>48.2034</ele>
        <time>2013-04-12T18:49:30Z</time>
      </trkpt>
      <trkpt lat="59.9855454" lon="17.73828">
        <ele>48.2034</ele>
        <time>2013-04-12T18:49:31Z</time>
      </trkpt>
      <trkpt lat="59.9855562" lon="17.7382825">
        <ele>49.1646</ele>
        <time>2013-04-12T18:49:32Z</time>
      </trkpt>
      <trkpt lat="59.985568" lon="17.7382856">
        <ele>49.1646</ele>
        <time>2013-04-12T18:49:33Z</time>
      </trkpt>
      <trkpt lat="59.9855853" lon="17.738288">
        <ele>49.1646</ele>
        <time>2013-04-12T18:49:34Z</time>
      </trkpt>
      <trkpt lat="59.9856013" lon="17.7382956">
        <ele>48.2034</ele>
        <time>2013-04-12T18:49:35Z</time>
      </trkpt>
      <trkpt lat="59.9856137" lon="17.7383053">
        <ele>47.2418</ele>
        <time>2013-04-12T18:49:36Z</time>
      </trkpt>
      <trkpt lat="59.9856282" lon="17.7383115">
        <ele>46.7612</ele>
        <time>2013-04-12T18:49:37Z</time>
      </trkpt>
      <trkpt lat="59.9856442" lon="17.7383136">
        <ele>46.7612</ele>
        <time>2013-04-12T18:49:38Z</time>
      </trkpt>
      <trkpt lat="59.9856634" lon="17.7383213">
        <ele>46.7612</ele>
        <time>2013-04-12T18:49:39Z</time>
      </trkpt>
      <trkpt lat="59.9856824" lon="17.7383288">
        <ele>46.7612</ele>
        <time>2013-04-12T18:49:40Z</time>
      </trkpt>
      <trkpt lat="59.9856998" lon="17.7383354">
        <ele>46.7612</ele>
        <time>2013-04-12T18:49:41Z</time>
      </trkpt>
      <trkpt lat="59.9857183" lon="17.7383416">
        <ele>46.7612</ele>
        <time>2013-04-12T18:49:42Z</time>
      </trkpt>
      <trkpt lat="59.9857363" lon="17.7383461">
        <ele>46.2806</ele>
        <time>2013-04-12T18:49:43Z</time>
      </trkpt>
      <trkpt lat="59.9857552" lon="17.7383567">
        <ele>46.2806</ele>
        <time>2013-04-12T18:49:44Z</time>
      </trkpt>
      <trkpt lat="59.9857706" lon="17.7383654">
        <ele>46.7612</ele>
        <time>2013-04-12T18:49:45Z</time>
      </trkpt>
      <trkpt lat="59.9857769" lon="17.7383824">
        <ele>46.7612</ele>
        <time>2013-04-12T18:49:46Z</time>
      </trkpt>
      <trkpt lat="59.9857886" lon="17.7383974">
        <ele>46.7612</ele>
        <time>2013-04-12T18:49:47Z</time>
      </trkpt>
      <trkpt lat="59.9858044" lon="17.7384085">
        <ele>47.2418</ele>
        <time>2013-04-12T18:49:48Z</time>
      </trkpt>
      <trkpt lat="59.9858173" lon="17.7384182">
        <ele>47.7225</ele>
        <time>2013-04-12T18:49:49Z</time>
      </trkpt>
      <trkpt lat="59.9858303" lon="17.7384302">
        <ele>47.7225</ele>
        <time>2013-04-12T18:49:50Z</time>
      </trkpt>
      <trkpt lat="59.9858456" lon="17.7384352">
        <ele>47.7225</ele>
        <time>2013-04-12T18:49:51Z</time>
      </trkpt>
      <trkpt lat="59.9858599" lon="17.7384452">
        <ele>47.2418</ele>
        <time>2013-04-12T18:49:52Z</time>
      </trkpt>
      <trkpt lat="59.9858738" lon="17.7384507">
        <ele>47.7225</ele>
        <time>2013-04-12T18:49:53Z</time>
      </trkpt>
      <trkpt lat="59.9858912" lon="17.7384582">
        <ele>47.7225</ele>
        <time>2013-04-12T18:49:54Z</time>
      </trkpt>
      <trkpt lat="59.9859098" lon="17.7384593">
        <ele>47.7225</ele>
        <time>2013-04-12T18:49:55Z</time>
      </trkpt>
      <trkpt lat="59.9859275" lon="17.7384603">
        <ele>47.2418</ele>
        <time>2013-04-12T18:49:56Z</time>
      </trkpt>
      <trkpt lat="59.9859454" lon="17.7384653">
        <ele>46.7612</ele>
        <time>2013-04-12T18:49:57Z</time>
      </trkpt>
      <trkpt lat="59.9859608" lon="17.7384721">
        <ele>46.2806</ele>
        <time>2013-04-12T18:49:58Z</time>
      </trkpt>
      <trkpt lat="59.9859778" lon="17.7384789">
        <ele>46.2806</ele>
        <time>2013-04-12T18:49:59Z</time>
      </trkpt>
      <trkpt lat="59.9859903" lon="17.7384867">
        <ele>46.2806</ele>
        <time>2013-04-12T18:50:00Z</time>
      </trkpt>
      <trkpt lat="59.9860044" lon="17.7385035">
        <ele>45.7999</ele>
        <time>2013-04-12T18:50:01Z</time>
      </trkpt>
      <trkpt lat="59.9860184" lon="17.7385134">
        <ele>46.2806</ele>
        <time>2013-04-12T18:50:02Z</time>
      </trkpt>
      <trkpt lat="59.9860333" lon="17.7385245">
        <ele>46.2806</ele>
        <time>2013-04-12T18:50:03Z</time>
      </trkpt>
      <trkpt lat="59.9860458" lon="17.7385356">
        <ele>45.7999</ele>
        <time>2013-04-12T18:50:04Z</time>
      </trkpt>
      <trkpt lat="59.9860561" lon="17.7385474">
        <ele>45.3192</ele>
        <time>2013-04-12T18:50:05Z</time>
      </trkpt>
      <trkpt lat="59.986068" lon="17.7385556">
        <ele>45.7999</ele>
        <time>2013-04-12T18:50:06Z</time>
      </trkpt>
      <trkpt lat="59.9860806" lon="17.7385644">
        <ele>45.7999</ele>
        <time>2013-04-12T18:50:07Z</time>
      </trkpt>
      <trkpt lat="59.9860958" lon="17.7385742">
        <ele>45.3192</ele>
        <time>2013-04-12T18:50:08Z</time>
      </trkpt>
      <trkpt lat="59.9861127" lon="17.7385803">
        <ele>45.3192</ele>
        <time>2013-04-12T18:50:09Z</time>
      </trkpt>
      <trkpt lat="59.9861281" lon="17.7385896">
        <ele>44.8386</ele>
        <time>2013-04-12T18:50:10Z</time>
      </trkpt>
      <trkpt lat="59.9861422" lon="17.7386005">
        <ele>44.8386</ele>
        <time>2013-04-12T18:50:11Z</time>
      </trkpt>
      <trkpt lat="59.9861578" lon="17.7386084">
        <ele>45.3192</ele>
        <time>2013-04-12T18:50:12Z</time>
      </trkpt>
      <trkpt lat="59.9861737" lon="17.7386222">
        <ele>45.3192</ele>
        <time>2013-04-12T18:50:13Z</time>
      </trkpt>
      <trkpt lat="59.9861892" lon="17.7386348">
        <ele>45.3192</ele>
        <time>2013-04-12T18:50:14Z</time>
      </trkpt>
      <trkpt lat="59.9862049" lon="17.7386452">
        <ele>45.7999</ele>
        <time>2013-04-12T18:50:15Z</time>
      </trkpt>
      <trkpt lat="59.9862202" lon="17.7386546">
        <ele>46.2806</ele>
        <time>2013-04-12T18:50:16Z</time>
      </trkpt>
      <trkpt lat="59.9862348" lon="17.7386632">
        <ele>46.2806</ele>
        <time>2013-04-12T18:50:17Z</time>
      </trkpt>
      <trkpt lat="59.9862483" lon="17.7386745">
        <ele>46.2806</ele>
        <time>2013-04-12T18:50:18Z</time>
      </trkpt>
      <trkpt lat="59.9862628" lon="17.7386859">
        <ele>46.7612</ele>
        <time>2013-04-12T18:50:19Z</time>
      </trkpt>
      <trkpt lat="59.9862776" lon="17.7386959">
        <ele>48.2034</ele>
        <time>2013-04-12T18:50:20Z</time>
      </trkpt>
      <trkpt lat="59.9862934" lon="17.7387079">
        <ele>48.684</ele>
        <time>2013-04-12T18:50:21Z</time>
      </trkpt>
      <trkpt lat="59.9863037" lon="17.7387188">
        <ele>48.684</ele>
        <time>2013-04-12T18:50:22Z</time>
      </trkpt>
      <trkpt lat="59.9863185" lon="17.7387294">
        <ele>49.1646</ele>
        <time>2013-04-12T18:50:23Z</time>
      </trkpt>
      <trkpt lat="59.9863291" lon="17.7387498">
        <ele>49.6453</ele>
        <time>2013-04-12T18:50:24Z</time>
      </trkpt>
      <trkpt lat="59.9863467" lon="17.7387643">
        <ele>50.6066</ele>
        <time>2013-04-12T18:50:25Z</time>
      </trkpt>
      <trkpt lat="59.9863646" lon="17.7387762">
        <ele>51.0872</ele>
        <time>2013-04-12T18:50:26Z</time>
      </trkpt>
      <trkpt lat="59.9863794" lon="17.7387865">
        <ele>51.0872</ele>
        <time>2013-04-12T18:50:27Z</time>
      </trkpt>
      <trkpt lat="59.9863928" lon="17.738796">
        <ele>51.5679</ele>
        <time>2013-04-12T18:50:28Z</time>
      </trkpt>
      <trkpt lat="59.9864051" lon="17.7388058">
        <ele>51.5679</ele>
        <time>2013-04-12T18:50:29Z</time>
      </trkpt>
      <trkpt lat="59.9864156" lon="17.7388218">
        <ele>51.0872</ele>
        <time>2013-04-12T18:50:30Z</time>
      </trkpt>
      <trkpt lat="59.9864255" lon="17.7388373">
        <ele>51.0872</ele>
        <time>2013-04-12T18:50:31Z</time>
      </trkpt>
      <trkpt lat="59.9864367" lon="17.738855">
        <ele>52.0486</ele>
        <time>2013-04-12T18:50:32Z</time>
      </trkpt>
      <trkpt lat="59.9864483" lon="17.7388647">
        <ele>52.5292</ele>
        <time>2013-04-12T18:50:33Z</time>
      </trkpt>
      <trkpt lat="59.9864638" lon="17.7388727">
        <ele>53.4905</ele>
        <time>2013-04-12T18:50:34Z</time>
      </trkpt>
      <trkpt lat="59.9864799" lon="17.7388819">
        <ele>54.4518</ele>
        <time>2013-04-12T18:50:35Z</time>
      </trkpt>
      <trkpt lat="59.9864978" lon="17.7388915">
        <ele>54.9324</ele>
        <time>2013-04-12T18:50:36Z</time>
      </trkpt>
      <trkpt lat="59.9865149" lon="17.7389">
        <ele>54.9324</ele>
        <time>2013-04-12T18:50:37Z</time>
      </trkpt>
      <trkpt lat="59.9865284" lon="17.7389083">
        <ele>55.8938</ele>
        <time>2013-04-12T18:50:38Z</time>
      </trkpt>
      <trkpt lat="59.9865413" lon="17.7389201">
        <ele>54.9324</ele>
        <time>2013-04-12T18:50:39Z</time>
      </trkpt>
      <trkpt lat="59.9865529" lon="17.7389336">
        <ele>54.9324</ele>
        <time>2013-04-12T18:50:40Z</time>
      </trkpt>
      <trkpt lat="59.9865648" lon="17.7389461">
        <ele>54.9324</ele>
        <time>2013-04-12T18:50:41Z</time>
      </trkpt>
      <trkpt lat="59.9865757" lon="17.7389547">
        <ele>55.4131</ele>
        <time>2013-04-12T18:50:42Z</time>
      </trkpt>
      <trkpt lat="59.9865884" lon="17.7389695">
        <ele>56.3745</ele>
        <time>2013-04-12T18:50:43Z</time>
      </trkpt>
      <trkpt lat="59.9865976" lon="17.7389845">
        <ele>56.8551</ele>
        <time>2013-04-12T18:50:44Z</time>
      </trkpt>
      <trkpt lat="59.9866114" lon="17.7389933">
        <ele>56.8551</ele>
        <time>2013-04-12T18:50:45Z</time>
      </trkpt>
      <trkpt lat="59.9866258" lon="17.7390017">
        <ele>56.3745</ele>
        <time>2013-04-12T18:50:46Z</time>
      </trkpt>
      <trkpt lat="59.9866373" lon="17.7390119">
        <ele>55.8938</ele>
        <time>2013-04-12T18:50:47Z</time>
      </trkpt>
      <trkpt lat="59.986649" lon="17.7390242">
        <ele>55.4131</ele>
        <time>2013-04-12T18:50:48Z</time>
      </trkpt>
      <trkpt lat="59.9866612" lon="17.7390367">
        <ele>55.4131</ele>
        <time>2013-04-12T18:50:49Z</time>
      </trkpt>
      <trkpt lat="59.9866777" lon="17.7390441">
        <ele>55.8938</ele>
        <time>2013-04-12T18:50:50Z</time>
      </trkpt>
      <trkpt lat="59.9866926" lon="17.7390562">
        <ele>55.8938</ele>
        <time>2013-04-12T18:50:51Z</time>
      </trkpt>
      <trkpt lat="59.9867066" lon="17.7390705">
        <ele>55.4131</ele>
        <time>2013-04-12T18:50:52Z</time>
      </trkpt>
      <trkpt lat="59.9867223" lon="17.7390875">
        <ele>55.8938</ele>
        <time>2013-04-12T18:50:53Z</time>
      </trkpt>
      <trkpt lat="59.9867342" lon="17.7391015">
        <ele>56.3745</ele>
        <time>2013-04-12T18:50:54Z</time>
      </trkpt>
      <trkpt lat="59.9867435" lon="17.7391149">
        <ele>55.8938</ele>
        <time>2013-04-12T18:50:55Z</time>
      </trkpt>
      <trkpt lat="59.9867538" lon="17.7391254">
        <ele>55.4131</ele>
        <time>2013-04-12T18:50:56Z</time>
      </trkpt>
      <trkpt lat="59.9867642" lon="17.73914">
        <ele>54.9324</ele>
        <time>2013-04-12T18:50:57Z</time>
      </trkpt>
      <trkpt lat="59.9867772" lon="17.739158">
        <ele>54.9324</ele>
        <time>2013-04-12T18:50:58Z</time>
      </trkpt>
      <trkpt lat="59.9867943" lon="17.7391724">
        <ele>55.4131</ele>
        <time>2013-04-12T18:50:59Z</time>
      </trkpt>
      <trkpt lat="59.986807" lon="17.7391854">
        <ele>54.9324</ele>
        <time>2013-04-12T18:51:00Z</time>
      </trkpt>
      <trkpt lat="59.9868217" lon="17.7392025">
        <ele>55.4131</ele>
        <time>2013-04-12T18:51:01Z</time>
      </trkpt>
      <trkpt lat="59.9868356" lon="17.7392132">
        <ele>54.9324</ele>
        <time>2013-04-12T18:51:02Z</time>
      </trkpt>
      <trkpt lat="59.986846" lon="17.7392236">
        <ele>54.4518</ele>
        <time>2013-04-12T18:51:03Z</time>
      </trkpt>
      <trkpt lat="59.9868576" lon="17.7392337">
        <ele>53.9712</ele>
        <time>2013-04-12T18:51:04Z</time>
      </trkpt>
      <trkpt lat="59.986873" lon="17.7392444">
        <ele>53.4905</ele>
        <time>2013-04-12T18:51:05Z</time>
      </trkpt>
      <trkpt lat="59.9868855" lon="17.7392585">
        <ele>54.4518</ele>
        <time>2013-04-12T18:51:06Z</time>
      </trkpt>
      <trkpt lat="59.9868942" lon="17.7392766">
        <ele>53.9712</ele>
        <time>2013-04-12T18:51:07Z</time>
      </trkpt>
      <trkpt lat="59.986905" lon="17.7392879">
        <ele>53.4905</ele>
        <time>2013-04-12T18:51:08Z</time>
      </trkpt>
      <trkpt lat="59.9869145" lon="17.739301">
        <ele>53.0098</ele>
        <time>2013-04-12T18:51:09Z</time>
      </trkpt>
      <trkpt lat="59.9869211" lon="17.7393176">
        <ele>53.0098</ele>
        <time>2013-04-12T18:51:10Z</time>
      </trkpt>
      <trkpt lat="59.9869362" lon="17.7393273">
        <ele>53.0098</ele>
        <time>2013-04-12T18:51:11Z</time>
      </trkpt>
      <trkpt lat="59.9869524" lon="17.7393377">
        <ele>53.0098</ele>
        <time>2013-04-12T18:51:12Z</time>
      </trkpt>
      <trkpt lat="59.9869677" lon="17.7393491">
        <ele>53.0098</ele>
        <time>2013-04-12T18:51:13Z</time>
      </trkpt>
      <trkpt lat="59.9869914" lon="17.7393517">
        <ele>53.9712</ele>
        <time>2013-04-12T18:51:14Z</time>
      </trkpt>
      <trkpt lat="59.9870071" lon="17.7393595">
        <ele>54.9324</ele>
        <time>2013-04-12T18:51:15Z</time>
      </trkpt>
      <trkpt lat="59.9870225" lon="17.7393601">
        <ele>55.4131</ele>
        <time>2013-04-12T18:51:16Z</time>
      </trkpt>
      <trkpt lat="59.9870346" lon="17.7393601">
        <ele>54.4518</ele>
        <time>2013-04-12T18:51:17Z</time>
      </trkpt>
      <trkpt lat="59.9870472" lon="17.7393591">
        <ele>54.4518</ele>
        <time>2013-04-12T18:51:18Z</time>
      </trkpt>
      <trkpt lat="59.9870619" lon="17.7393575">
        <ele>54.4518</ele>
        <time>2013-04-12T18:51:19Z</time>
      </trkpt>
      <trkpt lat="59.9870793" lon="17.7393528">
        <ele>54.4518</ele>
        <time>2013-04-12T18:51:20Z</time>
      </trkpt>
      <trkpt lat="59.9870957" lon="17.7393502">
        <ele>54.4518</ele>
        <time>2013-04-12T18:51:21Z</time>
      </trkpt>
      <trkpt lat="59.9871108" lon="17.7393481">
        <ele>54.9324</ele>
        <time>2013-04-12T18:51:22Z</time>
      </trkpt>
      <trkpt lat="59.9871268" lon="17.7393524">
        <ele>54.9324</ele>
        <time>2013-04-12T18:51:23Z</time>
      </trkpt>
      <trkpt lat="59.9871427" lon="17.7393505">
        <ele>55.4131</ele>
        <time>2013-04-12T18:51:24Z</time>
      </trkpt>
      <trkpt lat="59.9871608" lon="17.7393443">
        <ele>55.8938</ele>
        <time>2013-04-12T18:51:25Z</time>
      </trkpt>
      <trkpt lat="59.9871801" lon="17.7393441">
        <ele>55.8938</ele>
        <time>2013-04-12T18:51:26Z</time>
      </trkpt>
      <trkpt lat="59.987195" lon="17.7393458">
        <ele>55.4131</ele>
        <time>2013-04-12T18:51:27Z</time>
      </trkpt>
      <trkpt lat="59.9872082" lon="17.739345">
        <ele>55.4131</ele>
        <time>2013-04-12T18:51:28Z</time>
      </trkpt>
      <trkpt lat="59.987221" lon="17.7393466">
        <ele>55.4131</ele>
        <time>2013-04-12T18:51:29Z</time>
      </trkpt>
      <trkpt lat="59.9872305" lon="17.7393381">
        <ele>55.4131</ele>
        <time>2013-04-12T18:51:30Z</time>
      </trkpt>
      <trkpt lat="59.9872399" lon="17.7393292">
        <ele>55.8938</ele>
        <time>2013-04-12T18:51:31Z</time>
      </trkpt>
      <trkpt lat="59.9872543" lon="17.7393298">
        <ele>54.9324</ele>
        <time>2013-04-12T18:51:32Z</time>
      </trkpt>
      <trkpt lat="59.9872697" lon="17.739333">
        <ele>55.4131</ele>
        <time>2013-04-12T18:51:33Z</time>
      </trkpt>
      <trkpt lat="59.9872893" lon="17.7393419">
        <ele>54.9324</ele>
        <time>2013-04-12T18:51:34Z</time>
      </trkpt>
      <trkpt lat="59.9873072" lon="17.739344">
        <ele>54.9324</ele>
        <time>2013-04-12T18:51:35Z</time>
      </trkpt>
      <trkpt lat="59.9873205" lon="17.7393543">
        <ele>53.9712</ele>
        <time>2013-04-12T18:51:36Z</time>
      </trkpt>
      <trkpt lat="59.9873365" lon="17.7393582">
        <ele>53.4905</ele>
        <time>2013-04-12T18:51:37Z</time>
      </trkpt>
      <trkpt lat="59.9873528" lon="17.7393611">
        <ele>52.5292</ele>
        <time>2013-04-12T18:51:38Z</time>
      </trkpt>
      <trkpt lat="59.9873734" lon="17.7393605">
        <ele>52.5292</ele>
        <time>2013-04-12T18:51:39Z</time>
      </trkpt>
      <trkpt lat="59.9873879" lon="17.7393585">
        <ele>51.5679</ele>
        <time>2013-04-12T18:51:40Z</time>
      </trkpt>
      <trkpt lat="59.9874039" lon="17.7393603">
        <ele>51.5679</ele>
        <time>2013-04-12T18:51:41Z</time>
      </trkpt>
      <trkpt lat="59.98742" lon="17.739361">
        <ele>51.5679</ele>
        <time>2013-04-12T18:51:42Z</time>
      </trkpt>
      <trkpt lat="59.9874355" lon="17.7393585">
        <ele>51.0872</ele>
        <time>2013-04-12T18:51:43Z</time>
      </trkpt>
      <trkpt lat="59.9874516" lon="17.7393494">
        <ele>51.0872</ele>
        <time>2013-04-12T18:51:44Z</time>
      </trkpt>
      <trkpt lat="59.9874656" lon="17.7393475">
        <ele>51.5679</ele>
        <time>2013-04-12T18:51:45Z</time>
      </trkpt>
      <trkpt lat="59.9874804" lon="17.739352">
        <ele>51.0872</ele>
        <time>2013-04-12T18:51:46Z</time>
      </trkpt>
      <trkpt lat="59.987494" lon="17.7393548">
        <ele>50.6066</ele>
        <time>2013-04-12T18:51:47Z</time>
      </trkpt>
      <trkpt lat="59.9875097" lon="17.7393492">
        <ele>51.5679</ele>
        <time>2013-04-12T18:51:48Z</time>
      </trkpt>
      <trkpt lat="59.9875261" lon="17.7393454">
        <ele>52.5292</ele>
        <time>2013-04-12T18:51:49Z</time>
      </trkpt>
      <trkpt lat="59.987544" lon="17.7393429">
        <ele>53.4905</ele>
        <time>2013-04-12T18:51:50Z</time>
      </trkpt>
      <trkpt lat="59.9875608" lon="17.7393363">
        <ele>54.4518</ele>
        <time>2013-04-12T18:51:51Z</time>
      </trkpt>
      <trkpt lat="59.9875733" lon="17.7393365">
        <ele>53.9712</ele>
        <time>2013-04-12T18:51:52Z</time>
      </trkpt>
      <trkpt lat="59.9875875" lon="17.7393321">
        <ele>53.4905</ele>
        <time>2013-04-12T18:51:53Z</time>
      </trkpt>
      <trkpt lat="59.9876024" lon="17.7393336">
        <ele>53.9712</ele>
        <time>2013-04-12T18:51:54Z</time>
      </trkpt>
      <trkpt lat="59.9876126" lon="17.7393367">
        <ele>53.4905</ele>
        <time>2013-04-12T18:51:55Z</time>
      </trkpt>
      <trkpt lat="59.9876246" lon="17.7393367">
        <ele>53.4905</ele>
        <time>2013-04-12T18:51:56Z</time>
      </trkpt>
      <trkpt lat="59.9876374" lon="17.7393413">
        <ele>53.4905</ele>
        <time>2013-04-12T18:51:57Z</time>
      </trkpt>
      <trkpt lat="59.9876486" lon="17.7393355">
        <ele>53.9712</ele>
        <time>2013-04-12T18:51:58Z</time>
      </trkpt>
      <trkpt lat="59.987663" lon="17.7393344">
        <ele>53.4905</ele>
        <time>2013-04-12T18:51:59Z</time>
      </trkpt>
      <trkpt lat="59.9876778" lon="17.7393196">
        <ele>54.4518</ele>
        <time>2013-04-12T18:52:00Z</time>
      </trkpt>
      <trkpt lat="59.9876945" lon="17.7393134">
        <ele>54.9324</ele>
        <time>2013-04-12T18:52:01Z</time>
      </trkpt>
      <trkpt lat="59.9877122" lon="17.7393134">
        <ele>54.9324</ele>
        <time>2013-04-12T18:52:02Z</time>
      </trkpt>
      <trkpt lat="59.9877267" lon="17.7393077">
        <ele>55.4131</ele>
        <time>2013-04-12T18:52:03Z</time>
      </trkpt>
      <trkpt lat="59.9877429" lon="17.7393041">
        <ele>55.4131</ele>
        <time>2013-04-12T18:52:04Z</time>
      </trkpt>
      <trkpt lat="59.9877623" lon="17.7392994">
        <ele>56.3745</ele>
        <time>2013-04-12T18:52:05Z</time>
      </trkpt>
      <trkpt lat="59.987784" lon="17.7392961">
        <ele>57.8165</ele>
        <time>2013-04-12T18:52:06Z</time>
      </trkpt>
      <trkpt lat="59.9878006" lon="17.7392922">
        <ele>58.7777</ele>
        <time>2013-04-12T18:52:07Z</time>
      </trkpt>
      <trkpt lat="59.9878173" lon="17.7392883">
        <ele>59.7391</ele>
        <time>2013-04-12T18:52:08Z</time>
      </trkpt>
      <trkpt lat="59.9878328" lon="17.7392925">
        <ele>60.2197</ele>
        <time>2013-04-12T18:52:09Z</time>
      </trkpt>
      <trkpt lat="59.9878508" lon="17.7392945">
        <ele>61.6617</ele>
        <time>2013-04-12T18:52:10Z</time>
      </trkpt>
      <trkpt lat="59.9878697" lon="17.7392937">
        <ele>62.1423</ele>
        <time>2013-04-12T18:52:11Z</time>
      </trkpt>
      <trkpt lat="59.9878847" lon="17.7392935">
        <ele>62.1423</ele>
        <time>2013-04-12T18:52:12Z</time>
      </trkpt>
      <trkpt lat="59.9878996" lon="17.7392889">
        <ele>62.6229</ele>
        <time>2013-04-12T18:52:13Z</time>
      </trkpt>
      <trkpt lat="59.9879192" lon="17.739275">
        <ele>63.5844</ele>
        <time>2013-04-12T18:52:14Z</time>
      </trkpt>
      <trkpt lat="59.9879436" lon="17.7392585">
        <ele>65.0264</ele>
        <time>2013-04-12T18:52:15Z</time>
      </trkpt>
      <trkpt lat="59.9879609" lon="17.7392579">
        <ele>65.0264</ele>
        <time>2013-04-12T18:52:16Z</time>
      </trkpt>
      <trkpt lat="59.9879774" lon="17.739262">
        <ele>65.5071</ele>
        <time>2013-04-12T18:52:17Z</time>
      </trkpt>
      <trkpt lat="59.9879908" lon="17.7392643">
        <ele>65.5071</ele>
        <time>2013-04-12T18:52:18Z</time>
      </trkpt>
      <trkpt lat="59.9880013" lon="17.7392589">
        <ele>65.0264</ele>
        <time>2013-04-12T18:52:19Z</time>
      </trkpt>
      <trkpt lat="59.9880101" lon="17.7392543">
        <ele>64.5457</ele>
        <time>2013-04-12T18:52:20Z</time>
      </trkpt>
      <trkpt lat="59.9880218" lon="17.7392512">
        <ele>64.5457</ele>
        <time>2013-04-12T18:52:21Z</time>
      </trkpt>
      <trkpt lat="59.9880323" lon="17.7392436">
        <ele>63.5844</ele>
        <time>2013-04-12T18:52:22Z</time>
      </trkpt>
      <trkpt lat="59.9880473" lon="17.7392353">
        <ele>64.5457</ele>
        <time>2013-04-12T18:52:23Z</time>
      </trkpt>
      <trkpt lat="59.9880617" lon="17.7392246">
        <ele>65.5071</ele>
        <time>2013-04-12T18:52:24Z</time>
      </trkpt>
      <trkpt lat="59.9880777" lon="17.7392254">
        <ele>65.9877</ele>
        <time>2013-04-12T18:52:25Z</time>
      </trkpt>
      <trkpt lat="59.988096" lon="17.7392138">
        <ele>67.4297</ele>
        <time>2013-04-12T18:52:26Z</time>
      </trkpt>
      <trkpt lat="59.9881126" lon="17.7392072">
        <ele>67.9103</ele>
        <time>2013-04-12T18:52:27Z</time>
      </trkpt>
      <trkpt lat="59.9881277" lon="17.7391954">
        <ele>68.3909</ele>
        <time>2013-04-12T18:52:28Z</time>
      </trkpt>
      <trkpt lat="59.9881453" lon="17.7391943">
        <ele>67.9103</ele>
        <time>2013-04-12T18:52:29Z</time>
      </trkpt>
      <trkpt lat="59.9881598" lon="17.7391963">
        <ele>67.4297</ele>
        <time>2013-04-12T18:52:30Z</time>
      </trkpt>
      <trkpt lat="59.9881756" lon="17.7391984">
        <ele>66.949</ele>
        <time>2013-04-12T18:52:31Z</time>
      </trkpt>
      <trkpt lat="59.9881867" lon="17.7391968">
        <ele>66.4683</ele>
        <time>2013-04-12T18:52:32Z</time>
      </trkpt>
      <trkpt lat="59.9881914" lon="17.7392008">
        <ele>65.9877</ele>
        <time>2013-04-12T18:52:33Z</time>
      </trkpt>
      <trkpt lat="59.9882025" lon="17.7391979">
        <ele>65.0264</ele>
        <time>2013-04-12T18:52:34Z</time>
      </trkpt>
      <trkpt lat="59.9882183" lon="17.7391937">
        <ele>63.5844</ele>
        <time>2013-04-12T18:52:35Z</time>
      </trkpt>
      <trkpt lat="59.9882313" lon="17.7391854">
        <ele>63.1036</ele>
        <time>2013-04-12T18:52:36Z</time>
      </trkpt>
      <trkpt lat="59.9882432" lon="17.7391723">
        <ele>62.6229</ele>
        <time>2013-04-12T18:52:37Z</time>
      </trkpt>
      <trkpt lat="59.9882502" lon="17.7391616">
        <ele>61.6617</ele>
        <time>2013-04-12T18:52:38Z</time>
      </trkpt>
      <trkpt lat="59.9882593" lon="17.7391483">
        <ele>61.181</ele>
        <time>2013-04-12T18:52:39Z</time>
      </trkpt>
      <trkpt lat="59.9882702" lon="17.7391367">
        <ele>61.6617</ele>
        <time>2013-04-12T18:52:40Z</time>
      </trkpt>
      <trkpt lat="59.9882808" lon="17.7391336">
        <ele>60.7003</ele>
        <time>2013-04-12T18:52:41Z</time>
      </trkpt>
      <trkpt lat="59.9882909" lon="17.7391314">
        <ele>59.7391</ele>
        <time>2013-04-12T18:52:42Z</time>
      </trkpt>
      <trkpt lat="59.9883025" lon="17.7391243">
        <ele>59.7391</ele>
        <time>2013-04-12T18:52:43Z</time>
      </trkpt>
      <trkpt lat="59.988315" lon="17.7391186">
        <ele>59.7391</ele>
        <time>2013-04-12T18:52:44Z</time>
      </trkpt>
      <trkpt lat="59.9883287" lon="17.7391163">
        <ele>59.7391</ele>
        <time>2013-04-12T18:52:45Z</time>
      </trkpt>
      <trkpt lat="59.9883431" lon="17.7391094">
        <ele>59.7391</ele>
        <time>2013-04-12T18:52:46Z</time>
      </trkpt>
      <trkpt lat="59.98836" lon="17.739102">
        <ele>60.7003</ele>
        <time>2013-04-12T18:52:47Z</time>
      </trkpt>
      <trkpt lat="59.9883757" lon="17.7391018">
        <ele>61.6617</ele>
        <time>2013-04-12T18:52:48Z</time>
      </trkpt>
      <trkpt lat="59.9883877" lon="17.7391036">
        <ele>61.6617</ele>
        <time>2013-04-12T18:52:49Z</time>
      </trkpt>
      <trkpt lat="59.9884011" lon="17.739103">
        <ele>61.181</ele>
        <time>2013-04-12T18:52:50Z</time>
      </trkpt>
      <trkpt lat="59.9884182" lon="17.7391">
        <ele>61.6617</ele>
        <time>2013-04-12T18:52:51Z</time>
      </trkpt>
      <trkpt lat="59.9884318" lon="17.7390999">
        <ele>60.7003</ele>
        <time>2013-04-12T18:52:52Z</time>
      </trkpt>
      <trkpt lat="59.9884441" lon="17.7390962">
        <ele>60.2197</ele>
        <time>2013-04-12T18:52:53Z</time>
      </trkpt>
      <trkpt lat="59.9884546" lon="17.7390889">
        <ele>59.7391</ele>
        <time>2013-04-12T18:52:54Z</time>
      </trkpt>
      <trkpt lat="59.9884695" lon="17.7390864">
        <ele>59.7391</ele>
        <time>2013-04-12T18:52:55Z</time>
      </trkpt>
      <trkpt lat="59.9884799" lon="17.7390812">
        <ele>59.2584</ele>
        <time>2013-04-12T18:52:56Z</time>
      </trkpt>
      <trkpt lat="59.9884922" lon="17.739078">
        <ele>58.7777</ele>
        <time>2013-04-12T18:52:57Z</time>
      </trkpt>
      <trkpt lat="59.9885062" lon="17.7390754">
        <ele>57.8165</ele>
        <time>2013-04-12T18:52:58Z</time>
      </trkpt>
      <trkpt lat="59.9885203" lon="17.7390791">
        <ele>57.3358</ele>
        <time>2013-04-12T18:52:59Z</time>
      </trkpt>
      <trkpt lat="59.9885359" lon="17.7390723">
        <ele>57.3358</ele>
        <time>2013-04-12T18:53:00Z</time>
      </trkpt>
      <trkpt lat="59.9885527" lon="17.7390523">
        <ele>56.8551</ele>
        <time>2013-04-12T18:53:01Z</time>
      </trkpt>
      <trkpt lat="59.9885655" lon="17.7390474">
        <ele>56.8551</ele>
        <time>2013-04-12T18:53:02Z</time>
      </trkpt>
      <trkpt lat="59.9885782" lon="17.7390417">
        <ele>55.8938</ele>
        <time>2013-04-12T18:53:03Z</time>
      </trkpt>
      <trkpt lat="59.9885918" lon="17.7390356">
        <ele>55.8938</ele>
        <time>2013-04-12T18:53:04Z</time>
      </trkpt>
      <trkpt lat="59.9886057" lon="17.7390215">
        <ele>56.8551</ele>
        <time>2013-04-12T18:53:05Z</time>
      </trkpt>
      <trkpt lat="59.9886203" lon="17.7390082">
        <ele>57.3358</ele>
        <time>2013-04-12T18:53:06Z</time>
      </trkpt>
      <trkpt lat="59.9886306" lon="17.7390016">
        <ele>57.3358</ele>
        <time>2013-04-12T18:53:07Z</time>
      </trkpt>
      <trkpt lat="59.9886367" lon="17.7389987">
        <ele>56.8551</ele>
        <time>2013-04-12T18:53:08Z</time>
      </trkpt>
      <trkpt lat="59.9886451" lon="17.7389925">
        <ele>55.8938</ele>
        <time>2013-04-12T18:53:09Z</time>
      </trkpt>
      <trkpt lat="59.9886577" lon="17.7389906">
        <ele>55.4131</ele>
        <time>2013-04-12T18:53:10Z</time>
      </trkpt>
      <trkpt lat="59.988672" lon="17.738972">
        <ele>56.3745</ele>
        <time>2013-04-12T18:53:11Z</time>
      </trkpt>
      <trkpt lat="59.9886876" lon="17.7389475">
        <ele>56.8551</ele>
        <time>2013-04-12T18:53:12Z</time>
      </trkpt>
      <trkpt lat="59.9887042" lon="17.7389314">
        <ele>57.3358</ele>
        <time>2013-04-12T18:53:13Z</time>
      </trkpt>
      <trkpt lat="59.9887217" lon="17.7389197">
        <ele>57.3358</ele>
        <time>2013-04-12T18:53:14Z</time>
      </trkpt>
      <trkpt lat="59.9887316" lon="17.7389157">
        <ele>56.8551</ele>
        <time>2013-04-12T18:53:15Z</time>
      </trkpt>
      <trkpt lat="59.988745" lon="17.7389051">
        <ele>56.3745</ele>
        <time>2013-04-12T18:53:16Z</time>
      </trkpt>
      <trkpt lat="59.9887612" lon="17.7388835">
        <ele>57.3358</ele>
        <time>2013-04-12T18:53:17Z</time>
      </trkpt>
      <trkpt lat="59.9887777" lon="17.7388663">
        <ele>57.3358</ele>
        <time>2013-04-12T18:53:18Z</time>
      </trkpt>
      <trkpt lat="59.9887896" lon="17.738856">
        <ele>56.3745</ele>
        <time>2013-04-12T18:53:19Z</time>
      </trkpt>
      <trkpt lat="59.98881" lon="17.7388463">
        <ele>56.8551</ele>
        <time>2013-04-12T18:53:20Z</time>
      </trkpt>
      <trkpt lat="59.9888244" lon="17.7388395">
        <ele>57.3358</ele>
        <time>2013-04-12T18:53:21Z</time>
      </trkpt>
      <trkpt lat="59.9888304" lon="17.7388206">
        <ele>57.3358</ele>
        <time>2013-04-12T18:53:22Z</time>
      </trkpt>
      <trkpt lat="59.9888428" lon="17.7388076">
        <ele>56.8551</ele>
        <time>2013-04-12T18:53:23Z</time>
      </trkpt>
      <trkpt lat="59.9888578" lon="17.7387929">
        <ele>56.8551</ele>
        <time>2013-04-12T18:53:24Z</time>
      </trkpt>
      <trkpt lat="59.9888716" lon="17.7387784">
        <ele>56.8551</ele>
        <time>2013-04-12T18:53:25Z</time>
      </trkpt>
      <trkpt lat="59.9888842" lon="17.7387596">
        <ele>56.8551</ele>
        <time>2013-04-12T18:53:26Z</time>
      </trkpt>
      <trkpt lat="59.9888974" lon="17.738747">
        <ele>57.3358</ele>
        <time>2013-04-12T18:53:27Z</time>
      </trkpt>
      <trkpt lat="59.9889099" lon="17.7387256">
        <ele>58.2971</ele>
        <time>2013-04-12T18:53:28Z</time>
      </trkpt>
      <trkpt lat="59.9889223" lon="17.7387006">
        <ele>58.2971</ele>
        <time>2013-04-12T18:53:29Z</time>
      </trkpt>
      <trkpt lat="59.9889373" lon="17.7386776">
        <ele>59.2584</ele>
        <time>2013-04-12T18:53:30Z</time>
      </trkpt>
      <trkpt lat="59.9889485" lon="17.7386665">
        <ele>59.2584</ele>
        <time>2013-04-12T18:53:31Z</time>
      </trkpt>
      <trkpt lat="59.9889573" lon="17.7386662">
        <ele>58.2971</ele>
        <time>2013-04-12T18:53:32Z</time>
      </trkpt>
      <trkpt lat="59.9889699" lon="17.7386617">
        <ele>57.3358</ele>
        <time>2013-04-12T18:53:33Z</time>
      </trkpt>
      <trkpt lat="59.9889809" lon="17.7386541">
        <ele>57.8165</ele>
        <time>2013-04-12T18:53:34Z</time>
      </trkpt>
      <trkpt lat="59.9889905" lon="17.7386498">
        <ele>58.2971</ele>
        <time>2013-04-12T18:53:35Z</time>
      </trkpt>
      <trkpt lat="59.9889956" lon="17.7386523">
        <ele>57.8165</ele>
        <time>2013-04-12T18:53:36Z</time>
      </trkpt>
      <trkpt lat="59.9890005" lon="17.7386509">
        <ele>57.8165</ele>
        <time>2013-04-12T18:53:37Z</time>
      </trkpt>
      <trkpt lat="59.9890057" lon="17.7386444">
        <ele>57.8165</ele>
        <time>2013-04-12T18:53:38Z</time>
      </trkpt>
      <trkpt lat="59.9890083" lon="17.7386458">
        <ele>57.8165</ele>
        <time>2013-04-12T18:53:39Z</time>
      </trkpt>
      <trkpt lat="59.9890197" lon="17.7386467">
        <ele>59.7391</ele>
        <time>2013-04-12T18:53:40Z</time>
      </trkpt>
      <trkpt lat="59.9890305" lon="17.7386498">
        <ele>61.181</ele>
        <time>2013-04-12T18:53:41Z</time>
      </trkpt>
      <trkpt lat="59.9890399" lon="17.7386564">
        <ele>62.6229</ele>
        <time>2013-04-12T18:53:42Z</time>
      </trkpt>
      <trkpt lat="59.9890507" lon="17.7386607">
        <ele>64.5457</ele>
        <time>2013-04-12T18:53:43Z</time>
      </trkpt>
      <trkpt lat="59.9890552" lon="17.7386629">
        <ele>65.0264</ele>
        <time>2013-04-12T18:53:44Z</time>
      </trkpt>
      <trkpt lat="59.989056" lon="17.7386658">
        <ele>65.0264</ele>
        <time>2013-04-12T18:53:45Z</time>
      </trkpt>
      <trkpt lat="59.9890709" lon="17.7386564">
        <ele>67.4297</ele>
        <time>2013-04-12T18:53:46Z</time>
      </trkpt>
      <trkpt lat="59.9890735" lon="17.7386564">
        <ele>67.4297</ele>
        <time>2013-04-12T18:53:47Z</time>
      </trkpt>
      <trkpt lat="59.9890824" lon="17.7386623">
        <ele>66.949</ele>
        <time>2013-04-12T18:53:48Z</time>
      </trkpt>
      <trkpt lat="59.9890922" lon="17.7386633">
        <ele>67.4297</ele>
        <time>2013-04-12T18:53:49Z</time>
      </trkpt>
      <trkpt lat="59.9891104" lon="17.7386659">
        <ele>68.3909</ele>
        <time>2013-04-12T18:53:50Z</time>
      </trkpt>
      <trkpt lat="59.9891216" lon="17.7386558">
        <ele>68.3909</ele>
        <time>2013-04-12T18:53:51Z</time>
      </trkpt>
      <trkpt lat="59.9891326" lon="17.7386369">
        <ele>68.3909</ele>
        <time>2013-04-12T18:53:52Z</time>
      </trkpt>
      <trkpt lat="59.9891544" lon="17.7386256">
        <ele>69.3523</ele>
        <time>2013-04-12T18:53:53Z</time>
      </trkpt>
      <trkpt lat="59.9891703" lon="17.7386167">
        <ele>69.8329</ele>
        <time>2013-04-12T18:53:54Z</time>
      </trkpt>
      <trkpt lat="59.9891993" lon="17.7386031">
        <ele>69.8329</ele>
        <time>2013-04-12T18:53:56Z</time>
      </trkpt>
      <trkpt lat="59.9892145" lon="17.738599">
        <ele>70.3135</ele>
        <time>2013-04-12T18:53:57Z</time>
      </trkpt>
      <trkpt lat="59.989222" lon="17.7385897">
        <ele>69.8329</ele>
        <time>2013-04-12T18:53:58Z</time>
      </trkpt>
      <trkpt lat="59.9892299" lon="17.7385843">
        <ele>69.3523</ele>
        <time>2013-04-12T18:53:59Z</time>
      </trkpt>
      <trkpt lat="59.9892396" lon="17.7385774">
        <ele>68.8716</ele>
        <time>2013-04-12T18:54:00Z</time>
      </trkpt>
      <trkpt lat="59.9892484" lon="17.738569">
        <ele>68.3909</ele>
        <time>2013-04-12T18:54:01Z</time>
      </trkpt>
      <trkpt lat="59.9892579" lon="17.7385489">
        <ele>67.9103</ele>
        <time>2013-04-12T18:54:02Z</time>
      </trkpt>
      <trkpt lat="59.9892681" lon="17.7385287">
        <ele>67.4297</ele>
        <time>2013-04-12T18:54:03Z</time>
      </trkpt>
      <trkpt lat="59.9892807" lon="17.7385188">
        <ele>66.949</ele>
        <time>2013-04-12T18:54:04Z</time>
      </trkpt>
      <trkpt lat="59.9892936" lon="17.7385131">
        <ele>66.4683</ele>
        <time>2013-04-12T18:54:05Z</time>
      </trkpt>
      <trkpt lat="59.9893061" lon="17.7385039">
        <ele>65.5071</ele>
        <time>2013-04-12T18:54:06Z</time>
      </trkpt>
      <trkpt lat="59.9893191" lon="17.7384989">
        <ele>65.0264</ele>
        <time>2013-04-12T18:54:07Z</time>
      </trkpt>
      <trkpt lat="59.9893328" lon="17.7384939">
        <ele>64.5457</ele>
        <time>2013-04-12T18:54:08Z</time>
      </trkpt>
      <trkpt lat="59.9893463" lon="17.7384877">
        <ele>64.0651</ele>
        <time>2013-04-12T18:54:09Z</time>
      </trkpt>
      <trkpt lat="59.9893589" lon="17.7384825">
        <ele>63.1036</ele>
        <time>2013-04-12T18:54:10Z</time>
      </trkpt>
      <trkpt lat="59.9893741" lon="17.7384815">
        <ele>62.6229</ele>
        <time>2013-04-12T18:54:11Z</time>
      </trkpt>
      <trkpt lat="59.9893819" lon="17.7384753">
        <ele>61.6617</ele>
        <time>2013-04-12T18:54:12Z</time>
      </trkpt>
      <trkpt lat="59.989387" lon="17.7384759">
        <ele>60.2197</ele>
        <time>2013-04-12T18:54:13Z</time>
      </trkpt>
      <trkpt lat="59.9894014" lon="17.7384689">
        <ele>59.7391</ele>
        <time>2013-04-12T18:54:14Z</time>
      </trkpt>
      <trkpt lat="59.9894087" lon="17.738471">
        <ele>58.7777</ele>
        <time>2013-04-12T18:54:15Z</time>
      </trkpt>
      <trkpt lat="59.9894122" lon="17.7384666">
        <ele>57.8165</ele>
        <time>2013-04-12T18:54:16Z</time>
      </trkpt>
      <trkpt lat="59.9894183" lon="17.7384664">
        <ele>56.8551</ele>
        <time>2013-04-12T18:54:17Z</time>
      </trkpt>
      <trkpt lat="59.9894321" lon="17.7384695">
        <ele>56.3745</ele>
        <time>2013-04-12T18:54:18Z</time>
      </trkpt>
      <trkpt lat="59.989446" lon="17.7384717">
        <ele>56.3745</ele>
        <time>2013-04-12T18:54:19Z</time>
      </trkpt>
      <trkpt lat="59.9894634" lon="17.7384758">
        <ele>55.8938</ele>
        <time>2013-04-12T18:54:20Z</time>
      </trkpt>
      <trkpt lat="59.9894728" lon="17.7384815">
        <ele>54.9324</ele>
        <time>2013-04-12T18:54:21Z</time>
      </trkpt>
      <trkpt lat="59.9894848" lon="17.7384808">
        <ele>53.4905</ele>
        <time>2013-04-12T18:54:22Z</time>
      </trkpt>
      <trkpt lat="59.9894927" lon="17.7384747">
        <ele>53.4905</ele>
        <time>2013-04-12T18:54:23Z</time>
      </trkpt>
      <trkpt lat="59.9895035" lon="17.7384685">
        <ele>53.9712</ele>
        <time>2013-04-12T18:54:24Z</time>
      </trkpt>
      <trkpt lat="59.9895243" lon="17.7384666">
        <ele>54.4518</ele>
        <time>2013-04-12T18:54:25Z</time>
      </trkpt>
      <trkpt lat="59.9895397" lon="17.7384621">
        <ele>55.4131</ele>
        <time>2013-04-12T18:54:26Z</time>
      </trkpt>
      <trkpt lat="59.9895589" lon="17.738468">
        <ele>56.3745</ele>
        <time>2013-04-12T18:54:27Z</time>
      </trkpt>
      <trkpt lat="59.9895745" lon="17.7384701">
        <ele>55.8938</ele>
        <time>2013-04-12T18:54:28Z</time>
      </trkpt>
      <trkpt lat="59.989593" lon="17.7384645">
        <ele>56.3745</ele>
        <time>2013-04-12T18:54:29Z</time>
      </trkpt>
      <trkpt lat="59.989609" lon="17.7384582">
        <ele>56.3745</ele>
        <time>2013-04-12T18:54:30Z</time>
      </trkpt>
      <trkpt lat="59.9896255" lon="17.7384503">
        <ele>56.3745</ele>
        <time>2013-04-12T18:54:31Z</time>
      </trkpt>
      <trkpt lat="59.9896423" lon="17.7384424">
        <ele>56.8551</ele>
        <time>2013-04-12T18:54:32Z</time>
      </trkpt>
      <trkpt lat="59.9896577" lon="17.7384323">
        <ele>57.3358</ele>
        <time>2013-04-12T18:54:33Z</time>
      </trkpt>
      <trkpt lat="59.9896734" lon="17.7384281">
        <ele>58.2971</ele>
        <time>2013-04-12T18:54:34Z</time>
      </trkpt>
      <trkpt lat="59.9896894" lon="17.7384286">
        <ele>58.2971</ele>
        <time>2013-04-12T18:54:35Z</time>
      </trkpt>
      <trkpt lat="59.9897003" lon="17.7384296">
        <ele>58.7777</ele>
        <time>2013-04-12T18:54:36Z</time>
      </trkpt>
      <trkpt lat="59.9897107" lon="17.7384297">
        <ele>58.2971</ele>
        <time>2013-04-12T18:54:37Z</time>
      </trkpt>
      <trkpt lat="59.9897231" lon="17.7384229">
        <ele>57.3358</ele>
        <time>2013-04-12T18:54:38Z</time>
      </trkpt>
      <trkpt lat="59.9897386" lon="17.7384125">
        <ele>56.8551</ele>
        <time>2013-04-12T18:54:39Z</time>
      </trkpt>
      <trkpt lat="59.9897557" lon="17.7384065">
        <ele>56.8551</ele>
        <time>2013-04-12T18:54:40Z</time>
      </trkpt>
      <trkpt lat="59.9897759" lon="17.7383965">
        <ele>57.3358</ele>
        <time>2013-04-12T18:54:41Z</time>
      </trkpt>
      <trkpt lat="59.9897924" lon="17.7383828">
        <ele>57.8165</ele>
        <time>2013-04-12T18:54:42Z</time>
      </trkpt>
      <trkpt lat="59.989805" lon="17.7383637">
        <ele>57.8165</ele>
        <time>2013-04-12T18:54:43Z</time>
      </trkpt>
      <trkpt lat="59.9898199" lon="17.7383512">
        <ele>56.8551</ele>
        <time>2013-04-12T18:54:44Z</time>
      </trkpt>
      <trkpt lat="59.9898278" lon="17.7383581">
        <ele>55.8938</ele>
        <time>2013-04-12T18:54:45Z</time>
      </trkpt>
      <trkpt lat="59.9898408" lon="17.7383486">
        <ele>54.4518</ele>
        <time>2013-04-12T18:54:46Z</time>
      </trkpt>
      <trkpt lat="59.9898583" lon="17.7383432">
        <ele>54.9324</ele>
        <time>2013-04-12T18:54:47Z</time>
      </trkpt>
      <trkpt lat="59.9898775" lon="17.7383385">
        <ele>55.4131</ele>
        <time>2013-04-12T18:54:48Z</time>
      </trkpt>
      <trkpt lat="59.9898982" lon="17.7383326">
        <ele>54.9324</ele>
        <time>2013-04-12T18:54:49Z</time>
      </trkpt>
      <trkpt lat="59.9899156" lon="17.7383222">
        <ele>55.4131</ele>
        <time>2013-04-12T18:54:50Z</time>
      </trkpt>
      <trkpt lat="59.9899351" lon="17.7383198">
        <ele>55.8938</ele>
        <time>2013-04-12T18:54:51Z</time>
      </trkpt>
      <trkpt lat="59.989951" lon="17.7383176">
        <ele>55.4131</ele>
        <time>2013-04-12T18:54:52Z</time>
      </trkpt>
      <trkpt lat="59.9899613" lon="17.7383026">
        <ele>53.9712</ele>
        <time>2013-04-12T18:54:53Z</time>
      </trkpt>
      <trkpt lat="59.9899773" lon="17.7382944">
        <ele>54.4518</ele>
        <time>2013-04-12T18:54:54Z</time>
      </trkpt>
      <trkpt lat="59.9899925" lon="17.7382877">
        <ele>53.4905</ele>
        <time>2013-04-12T18:54:55Z</time>
      </trkpt>
      <trkpt lat="59.990007" lon="17.7382722">
        <ele>53.4905</ele>
        <time>2013-04-12T18:54:56Z</time>
      </trkpt>
      <trkpt lat="59.990023" lon="17.7382653">
        <ele>54.4518</ele>
        <time>2013-04-12T18:54:57Z</time>
      </trkpt>
      <trkpt lat="59.9900395" lon="17.7382618">
        <ele>54.4518</ele>
        <time>2013-04-12T18:54:58Z</time>
      </trkpt>
      <trkpt lat="59.9900529" lon="17.7382621">
        <ele>53.4905</ele>
        <time>2013-04-12T18:54:59Z</time>
      </trkpt>
      <trkpt lat="59.9900635" lon="17.7382504">
        <ele>53.9712</ele>
        <time>2013-04-12T18:55:00Z</time>
      </trkpt>
      <trkpt lat="59.9900742" lon="17.7382386">
        <ele>54.9324</ele>
        <time>2013-04-12T18:55:01Z</time>
      </trkpt>
      <trkpt lat="59.9900829" lon="17.7382306">
        <ele>54.4518</ele>
        <time>2013-04-12T18:55:02Z</time>
      </trkpt>
      <trkpt lat="59.9900935" lon="17.7382192">
        <ele>54.9324</ele>
        <time>2013-04-12T18:55:03Z</time>
      </trkpt>
      <trkpt lat="59.9901049" lon="17.7382054">
        <ele>55.4131</ele>
        <time>2013-04-12T18:55:04Z</time>
      </trkpt>
      <trkpt lat="59.9901195" lon="17.7381852">
        <ele>54.9324</ele>
        <time>2013-04-12T18:55:05Z</time>
      </trkpt>
      <trkpt lat="59.9901347" lon="17.7381858">
        <ele>54.4518</ele>
        <time>2013-04-12T18:55:06Z</time>
      </trkpt>
      <trkpt lat="59.9901552" lon="17.7381919">
        <ele>54.9324</ele>
        <time>2013-04-12T18:55:07Z</time>
      </trkpt>
      <trkpt lat="59.990176" lon="17.7381856">
        <ele>55.8938</ele>
        <time>2013-04-12T18:55:08Z</time>
      </trkpt>
      <trkpt lat="59.9901944" lon="17.7381894">
        <ele>56.3745</ele>
        <time>2013-04-12T18:55:09Z</time>
      </trkpt>
      <trkpt lat="59.9902209" lon="17.738191">
        <ele>58.2971</ele>
        <time>2013-04-12T18:55:10Z</time>
      </trkpt>
      <trkpt lat="59.9902392" lon="17.7381901">
        <ele>59.2584</ele>
        <time>2013-04-12T18:55:11Z</time>
      </trkpt>
      <trkpt lat="59.9902544" lon="17.7381784">
        <ele>59.7391</ele>
        <time>2013-04-12T18:55:12Z</time>
      </trkpt>
      <trkpt lat="59.9902663" lon="17.7381752">
        <ele>59.2584</ele>
        <time>2013-04-12T18:55:13Z</time>
      </trkpt>
      <trkpt lat="59.9902773" lon="17.7381734">
        <ele>59.2584</ele>
        <time>2013-04-12T18:55:14Z</time>
      </trkpt>
      <trkpt lat="59.9902924" lon="17.7381611">
        <ele>59.2584</ele>
        <time>2013-04-12T18:55:15Z</time>
      </trkpt>
      <trkpt lat="59.9903064" lon="17.7381556">
        <ele>58.2971</ele>
        <time>2013-04-12T18:55:16Z</time>
      </trkpt>
      <trkpt lat="59.9903183" lon="17.7381484">
        <ele>57.3358</ele>
        <time>2013-04-12T18:55:17Z</time>
      </trkpt>
      <trkpt lat="59.990327" lon="17.7381534">
        <ele>55.8938</ele>
        <time>2013-04-12T18:55:18Z</time>
      </trkpt>
      <trkpt lat="59.990338" lon="17.7381545">
        <ele>54.9324</ele>
        <time>2013-04-12T18:55:19Z</time>
      </trkpt>
      <trkpt lat="59.9903541" lon="17.7381397">
        <ele>54.9324</ele>
        <time>2013-04-12T18:55:20Z</time>
      </trkpt>
      <trkpt lat="59.9903743" lon="17.7381265">
        <ele>55.8938</ele>
        <time>2013-04-12T18:55:21Z</time>
      </trkpt>
      <trkpt lat="59.9903899" lon="17.7381213">
        <ele>55.8938</ele>
        <time>2013-04-12T18:55:22Z</time>
      </trkpt>
      <trkpt lat="59.9904059" lon="17.7381183">
        <ele>55.4131</ele>
        <time>2013-04-12T18:55:23Z</time>
      </trkpt>
      <trkpt lat="59.9904176" lon="17.7381091">
        <ele>55.8938</ele>
        <time>2013-04-12T18:55:24Z</time>
      </trkpt>
      <trkpt lat="59.9904287" lon="17.738101">
        <ele>54.9324</ele>
        <time>2013-04-12T18:55:25Z</time>
      </trkpt>
      <trkpt lat="59.9904426" lon="17.7380873">
        <ele>54.4518</ele>
        <time>2013-04-12T18:55:26Z</time>
      </trkpt>
      <trkpt lat="59.9904547" lon="17.7380774">
        <ele>53.4905</ele>
        <time>2013-04-12T18:55:27Z</time>
      </trkpt>
      <trkpt lat="59.990469" lon="17.7380707">
        <ele>53.0098</ele>
        <time>2013-04-12T18:55:28Z</time>
      </trkpt>
      <trkpt lat="59.9904849" lon="17.7380707">
        <ele>52.5292</ele>
        <time>2013-04-12T18:55:29Z</time>
      </trkpt>
      <trkpt lat="59.9905031" lon="17.7380645">
        <ele>53.4905</ele>
        <time>2013-04-12T18:55:30Z</time>
      </trkpt>
      <trkpt lat="59.9905199" lon="17.7380597">
        <ele>53.4905</ele>
        <time>2013-04-12T18:55:31Z</time>
      </trkpt>
      <trkpt lat="59.9905358" lon="17.7380492">
        <ele>53.4905</ele>
        <time>2013-04-12T18:55:32Z</time>
      </trkpt>
      <trkpt lat="59.9905509" lon="17.7380395">
        <ele>53.9712</ele>
        <time>2013-04-12T18:55:33Z</time>
      </trkpt>
      <trkpt lat="59.990564" lon="17.7380391">
        <ele>53.4905</ele>
        <time>2013-04-12T18:55:34Z</time>
      </trkpt>
      <trkpt lat="59.9905752" lon="17.7380339">
        <ele>53.0098</ele>
        <time>2013-04-12T18:55:35Z</time>
      </trkpt>
      <trkpt lat="59.9905881" lon="17.7380366">
        <ele>53.4905</ele>
        <time>2013-04-12T18:55:36Z</time>
      </trkpt>
      <trkpt lat="59.990598" lon="17.7380363">
        <ele>53.4905</ele>
        <time>2013-04-12T18:55:37Z</time>
      </trkpt>
      <trkpt lat="59.9905996" lon="17.7380401">
        <ele>52.0486</ele>
        <time>2013-04-12T18:55:38Z</time>
      </trkpt>
      <trkpt lat="59.9906051" lon="17.7380324">
        <ele>52.5292</ele>
        <time>2013-04-12T18:55:39Z</time>
      </trkpt>
      <trkpt lat="59.9906151" lon="17.7380268">
        <ele>53.0098</ele>
        <time>2013-04-12T18:55:40Z</time>
      </trkpt>
      <trkpt lat="59.9906323" lon="17.7380204">
        <ele>53.9712</ele>
        <time>2013-04-12T18:55:41Z</time>
      </trkpt>
      <trkpt lat="59.9906446" lon="17.7380088">
        <ele>53.9712</ele>
        <time>2013-04-12T18:55:42Z</time>
      </trkpt>
      <trkpt lat="59.9906592" lon="17.7380007">
        <ele>53.9712</ele>
        <time>2013-04-12T18:55:43Z</time>
      </trkpt>
      <trkpt lat="59.9906729" lon="17.737996">
        <ele>53.4905</ele>
        <time>2013-04-12T18:55:44Z</time>
      </trkpt>
      <trkpt lat="59.9906845" lon="17.7379909">
        <ele>53.4905</ele>
        <time>2013-04-12T18:55:45Z</time>
      </trkpt>
      <trkpt lat="59.9906978" lon="17.7379755">
        <ele>53.4905</ele>
        <time>2013-04-12T18:55:46Z</time>
      </trkpt>
      <trkpt lat="59.9907142" lon="17.7379579">
        <ele>53.4905</ele>
        <time>2013-04-12T18:55:47Z</time>
      </trkpt>
      <trkpt lat="59.9907281" lon="17.7379557">
        <ele>53.4905</ele>
        <time>2013-04-12T18:55:48Z</time>
      </trkpt>
      <trkpt lat="59.9907497" lon="17.7379356">
        <ele>53.9712</ele>
        <time>2013-04-12T18:55:49Z</time>
      </trkpt>
      <trkpt lat="59.9907673" lon="17.7379095">
        <ele>54.4518</ele>
        <time>2013-04-12T18:55:50Z</time>
      </trkpt>
      <trkpt lat="59.990784" lon="17.7378811">
        <ele>55.8938</ele>
        <time>2013-04-12T18:55:51Z</time>
      </trkpt>
      <trkpt lat="59.9907964" lon="17.7378681">
        <ele>55.8938</ele>
        <time>2013-04-12T18:55:52Z</time>
      </trkpt>
      <trkpt lat="59.9908079" lon="17.7378628">
        <ele>55.4131</ele>
        <time>2013-04-12T18:55:53Z</time>
      </trkpt>
      <trkpt lat="59.9908221" lon="17.7378609">
        <ele>54.9324</ele>
        <time>2013-04-12T18:55:54Z</time>
      </trkpt>
      <trkpt lat="59.990841" lon="17.7378607">
        <ele>54.9324</ele>
        <time>2013-04-12T18:55:55Z</time>
      </trkpt>
      <trkpt lat="59.9908605" lon="17.7378567">
        <ele>54.4518</ele>
        <time>2013-04-12T18:55:56Z</time>
      </trkpt>
      <trkpt lat="59.9908801" lon="17.737849">
        <ele>54.4518</ele>
        <time>2013-04-12T18:55:57Z</time>
      </trkpt>
      <trkpt lat="59.9908964" lon="17.7378438">
        <ele>53.9712</ele>
        <time>2013-04-12T18:55:58Z</time>
      </trkpt>
      <trkpt lat="59.9909114" lon="17.7378372">
        <ele>53.9712</ele>
        <time>2013-04-12T18:55:59Z</time>
      </trkpt>
      <trkpt lat="59.990928" lon="17.737831">
        <ele>54.4518</ele>
        <time>2013-04-12T18:56:00Z</time>
      </trkpt>
      <trkpt lat="59.9909442" lon="17.7378294">
        <ele>54.4518</ele>
        <time>2013-04-12T18:56:01Z</time>
      </trkpt>
      <trkpt lat="59.9909639" lon="17.7378303">
        <ele>55.4131</ele>
        <time>2013-04-12T18:56:02Z</time>
      </trkpt>
      <trkpt lat="59.9909861" lon="17.7378163">
        <ele>56.8551</ele>
        <time>2013-04-12T18:56:03Z</time>
      </trkpt>
      <trkpt lat="59.9910066" lon="17.7378094">
        <ele>57.3358</ele>
        <time>2013-04-12T18:56:04Z</time>
      </trkpt>
      <trkpt lat="59.9910205" lon="17.737799">
        <ele>57.8165</ele>
        <time>2013-04-12T18:56:05Z</time>
      </trkpt>
      <trkpt lat="59.9910312" lon="17.7377961">
        <ele>57.8165</ele>
        <time>2013-04-12T18:56:06Z</time>
      </trkpt>
      <trkpt lat="59.9910449" lon="17.737796">
        <ele>57.8165</ele>
        <time>2013-04-12T18:56:07Z</time>
      </trkpt>
      <trkpt lat="59.9910611" lon="17.737793">
        <ele>58.2971</ele>
        <time>2013-04-12T18:56:08Z</time>
      </trkpt>
      <trkpt lat="59.9910638" lon="17.7377955">
        <ele>57.8165</ele>
        <time>2013-04-12T18:56:09Z</time>
      </trkpt>
      <trkpt lat="59.99107" lon="17.7377876">
        <ele>56.8551</ele>
        <time>2013-04-12T18:56:10Z</time>
      </trkpt>
      <trkpt lat="59.9910839" lon="17.7377721">
        <ele>56.8551</ele>
        <time>2013-04-12T18:56:11Z</time>
      </trkpt>
      <trkpt lat="59.991101" lon="17.7377558">
        <ele>57.3358</ele>
        <time>2013-04-12T18:56:12Z</time>
      </trkpt>
      <trkpt lat="59.9911207" lon="17.7377397">
        <ele>58.2971</ele>
        <time>2013-04-12T18:56:13Z</time>
      </trkpt>
      <trkpt lat="59.9911378" lon="17.7377236">
        <ele>59.2584</ele>
        <time>2013-04-12T18:56:14Z</time>
      </trkpt>
      <trkpt lat="59.9911507" lon="17.7377125">
        <ele>59.2584</ele>
        <time>2013-04-12T18:56:15Z</time>
      </trkpt>
      <trkpt lat="59.9911652" lon="17.7377045">
        <ele>59.2584</ele>
        <time>2013-04-12T18:56:16Z</time>
      </trkpt>
      <trkpt lat="59.9911747" lon="17.7376872">
        <ele>58.7777</ele>
        <time>2013-04-12T18:56:17Z</time>
      </trkpt>
      <trkpt lat="59.9911855" lon="17.7376758">
        <ele>57.8165</ele>
        <time>2013-04-12T18:56:18Z</time>
      </trkpt>
      <trkpt lat="59.991202" lon="17.7376765">
        <ele>57.3358</ele>
        <time>2013-04-12T18:56:19Z</time>
      </trkpt>
      <trkpt lat="59.9912166" lon="17.7376688">
        <ele>57.8165</ele>
        <time>2013-04-12T18:56:20Z</time>
      </trkpt>
      <trkpt lat="59.9912322" lon="17.7376566">
        <ele>57.8165</ele>
        <time>2013-04-12T18:56:21Z</time>
      </trkpt>
      <trkpt lat="59.9912453" lon="17.7376512">
        <ele>58.2971</ele>
        <time>2013-04-12T18:56:22Z</time>
      </trkpt>
      <trkpt lat="59.9912655" lon="17.7376447">
        <ele>59.2584</ele>
        <time>2013-04-12T18:56:23Z</time>
      </trkpt>
      <trkpt lat="59.9912811" lon="17.7376367">
        <ele>60.2197</ele>
        <time>2013-04-12T18:56:24Z</time>
      </trkpt>
      <trkpt lat="59.9912916" lon="17.7376348">
        <ele>59.2584</ele>
        <time>2013-04-12T18:56:25Z</time>
      </trkpt>
      <trkpt lat="59.9913114" lon="17.737633">
        <ele>60.7003</ele>
        <time>2013-04-12T18:56:26Z</time>
      </trkpt>
      <trkpt lat="59.9913222" lon="17.7376339">
        <ele>60.2197</ele>
        <time>2013-04-12T18:56:27Z</time>
      </trkpt>
      <trkpt lat="59.9913222" lon="17.7376432">
        <ele>59.2584</ele>
        <time>2013-04-12T18:56:28Z</time>
      </trkpt>
      <trkpt lat="59.9913378" lon="17.7376449">
        <ele>60.2197</ele>
        <time>2013-04-12T18:56:29Z</time>
      </trkpt>
      <trkpt lat="59.9913512" lon="17.7376464">
        <ele>60.2197</ele>
        <time>2013-04-12T18:56:30Z</time>
      </trkpt>
      <trkpt lat="59.9913664" lon="17.7376407">
        <ele>60.2197</ele>
        <time>2013-04-12T18:56:31Z</time>
      </trkpt>
      <trkpt lat="59.991389" lon="17.7376374">
        <ele>62.1423</ele>
        <time>2013-04-12T18:56:32Z</time>
      </trkpt>
      <trkpt lat="59.9913999" lon="17.7376455">
        <ele>62.6229</ele>
        <time>2013-04-12T18:56:33Z</time>
      </trkpt>
      <trkpt lat="59.9914139" lon="17.7376478">
        <ele>64.0651</ele>
        <time>2013-04-12T18:56:34Z</time>
      </trkpt>
      <trkpt lat="59.9914267" lon="17.7376458">
        <ele>64.5457</ele>
        <time>2013-04-12T18:56:35Z</time>
      </trkpt>
      <trkpt lat="59.9914407" lon="17.7376464">
        <ele>65.0264</ele>
        <time>2013-04-12T18:56:36Z</time>
      </trkpt>
      <trkpt lat="59.9914513" lon="17.7376428">
        <ele>65.5071</ele>
        <time>2013-04-12T18:56:37Z</time>
      </trkpt>
      <trkpt lat="59.9914655" lon="17.7376369">
        <ele>65.0264</ele>
        <time>2013-04-12T18:56:38Z</time>
      </trkpt>
      <trkpt lat="59.9914821" lon="17.7376299">
        <ele>65.5071</ele>
        <time>2013-04-12T18:56:39Z</time>
      </trkpt>
      <trkpt lat="59.9914993" lon="17.7376315">
        <ele>65.5071</ele>
        <time>2013-04-12T18:56:40Z</time>
      </trkpt>
      <trkpt lat="59.9915157" lon="17.7376314">
        <ele>65.0264</ele>
        <time>2013-04-12T18:56:41Z</time>
      </trkpt>
      <trkpt lat="59.9915263" lon="17.7376365">
        <ele>64.0651</ele>
        <time>2013-04-12T18:56:42Z</time>
      </trkpt>
      <trkpt lat="59.9915393" lon="17.7376393">
        <ele>63.5844</ele>
        <time>2013-04-12T18:56:43Z</time>
      </trkpt>
      <trkpt lat="59.9915601" lon="17.7376361">
        <ele>65.5071</ele>
        <time>2013-04-12T18:56:44Z</time>
      </trkpt>
      <trkpt lat="59.9915771" lon="17.7376304">
        <ele>65.9877</ele>
        <time>2013-04-12T18:56:45Z</time>
      </trkpt>
      <trkpt lat="59.9915952" lon="17.7376276">
        <ele>66.4683</ele>
        <time>2013-04-12T18:56:46Z</time>
      </trkpt>
      <trkpt lat="59.9916102" lon="17.7376268">
        <ele>66.4683</ele>
        <time>2013-04-12T18:56:47Z</time>
      </trkpt>
      <trkpt lat="59.9916257" lon="17.7376242">
        <ele>66.949</ele>
        <time>2013-04-12T18:56:48Z</time>
      </trkpt>
      <trkpt lat="59.9916399" lon="17.7376252">
        <ele>66.949</ele>
        <time>2013-04-12T18:56:49Z</time>
      </trkpt>
      <trkpt lat="59.9916513" lon="17.7376196">
        <ele>65.9877</ele>
        <time>2013-04-12T18:56:50Z</time>
      </trkpt>
      <trkpt lat="59.9916647" lon="17.7376155">
        <ele>65.5071</ele>
        <time>2013-04-12T18:56:51Z</time>
      </trkpt>
      <trkpt lat="59.9916789" lon="17.7376177">
        <ele>65.5071</ele>
        <time>2013-04-12T18:56:52Z</time>
      </trkpt>
      <trkpt lat="59.9916904" lon="17.737623">
        <ele>64.5457</ele>
        <time>2013-04-12T18:56:53Z</time>
      </trkpt>
      <trkpt lat="59.9917029" lon="17.7376219">
        <ele>64.0651</ele>
        <time>2013-04-12T18:56:54Z</time>
      </trkpt>
      <trkpt lat="59.991715" lon="17.7376231">
        <ele>63.1036</ele>
        <time>2013-04-12T18:56:55Z</time>
      </trkpt>
      <trkpt lat="59.9917226" lon="17.7376167">
        <ele>61.6617</ele>
        <time>2013-04-12T18:56:56Z</time>
      </trkpt>
      <trkpt lat="59.9917351" lon="17.7376131">
        <ele>61.181</ele>
        <time>2013-04-12T18:56:57Z</time>
      </trkpt>
      <trkpt lat="59.9917461" lon="17.7376081">
        <ele>60.7003</ele>
        <time>2013-04-12T18:56:58Z</time>
      </trkpt>
      <trkpt lat="59.9917613" lon="17.7376041">
        <ele>60.2197</ele>
        <time>2013-04-12T18:56:59Z</time>
      </trkpt>
      <trkpt lat="59.991776" lon="17.7376095">
        <ele>60.2197</ele>
        <time>2013-04-12T18:57:00Z</time>
      </trkpt>
      <trkpt lat="59.9917914" lon="17.7376172">
        <ele>59.2584</ele>
        <time>2013-04-12T18:57:01Z</time>
      </trkpt>
      <trkpt lat="59.9918098" lon="17.7376209">
        <ele>59.2584</ele>
        <time>2013-04-12T18:57:02Z</time>
      </trkpt>
      <trkpt lat="59.9918212" lon="17.737622">
        <ele>58.7777</ele>
        <time>2013-04-12T18:57:03Z</time>
      </trkpt>
      <trkpt lat="59.9918346" lon="17.7376191">
        <ele>58.2971</ele>
        <time>2013-04-12T18:57:04Z</time>
      </trkpt>
      <trkpt lat="59.9918473" lon="17.7376234">
        <ele>57.8165</ele>
        <time>2013-04-12T18:57:05Z</time>
      </trkpt>
      <trkpt lat="59.9918603" lon="17.7376237">
        <ele>56.3745</ele>
        <time>2013-04-12T18:57:06Z</time>
      </trkpt>
      <trkpt lat="59.9918783" lon="17.7376058">
        <ele>56.8551</ele>
        <time>2013-04-12T18:57:07Z</time>
      </trkpt>
      <trkpt lat="59.9918972" lon="17.7376032">
        <ele>57.3358</ele>
        <time>2013-04-12T18:57:08Z</time>
      </trkpt>
      <trkpt lat="59.9919163" lon="17.7375976">
        <ele>57.3358</ele>
        <time>2013-04-12T18:57:09Z</time>
      </trkpt>
      <trkpt lat="59.9919302" lon="17.7375879">
        <ele>56.8551</ele>
        <time>2013-04-12T18:57:10Z</time>
      </trkpt>
      <trkpt lat="59.9919423" lon="17.7375792">
        <ele>56.3745</ele>
        <time>2013-04-12T18:57:11Z</time>
      </trkpt>
      <trkpt lat="59.9919573" lon="17.737576">
        <ele>56.3745</ele>
        <time>2013-04-12T18:57:12Z</time>
      </trkpt>
      <trkpt lat="59.9919754" lon="17.7375781">
        <ele>55.8938</ele>
        <time>2013-04-12T18:57:13Z</time>
      </trkpt>
      <trkpt lat="59.9919934" lon="17.7375733">
        <ele>56.3745</ele>
        <time>2013-04-12T18:57:14Z</time>
      </trkpt>
      <trkpt lat="59.9920091" lon="17.7375712">
        <ele>55.8938</ele>
        <time>2013-04-12T18:57:15Z</time>
      </trkpt>
      <trkpt lat="59.9920232" lon="17.7375703">
        <ele>56.3745</ele>
        <time>2013-04-12T18:57:16Z</time>
      </trkpt>
      <trkpt lat="59.9920353" lon="17.737569">
        <ele>56.8551</ele>
        <time>2013-04-12T18:57:17Z</time>
      </trkpt>
      <trkpt lat="59.9920485" lon="17.7375589">
        <ele>57.3358</ele>
        <time>2013-04-12T18:57:18Z</time>
      </trkpt>
      <trkpt lat="59.992063" lon="17.7375598">
        <ele>56.8551</ele>
        <time>2013-04-12T18:57:19Z</time>
      </trkpt>
      <trkpt lat="59.9920764" lon="17.7375568">
        <ele>56.8551</ele>
        <time>2013-04-12T18:57:20Z</time>
      </trkpt>
      <trkpt lat="59.9920908" lon="17.7375435">
        <ele>57.3358</ele>
        <time>2013-04-12T18:57:21Z</time>
      </trkpt>
      <trkpt lat="59.9920996" lon="17.7375338">
        <ele>57.8165</ele>
        <time>2013-04-12T18:57:22Z</time>
      </trkpt>
      <trkpt lat="59.992113" lon="17.7375298">
        <ele>58.2971</ele>
        <time>2013-04-12T18:57:23Z</time>
      </trkpt>
      <trkpt lat="59.9921261" lon="17.7375216">
        <ele>58.7777</ele>
        <time>2013-04-12T18:57:24Z</time>
      </trkpt>
      <trkpt lat="59.9921458" lon="17.7375108">
        <ele>59.7391</ele>
        <time>2013-04-12T18:57:25Z</time>
      </trkpt>
      <trkpt lat="59.9921599" lon="17.7375065">
        <ele>59.2584</ele>
        <time>2013-04-12T18:57:26Z</time>
      </trkpt>
      <trkpt lat="59.9921728" lon="17.7375004">
        <ele>59.2584</ele>
        <time>2013-04-12T18:57:27Z</time>
      </trkpt>
      <trkpt lat="59.9921817" lon="17.7374979">
        <ele>58.2971</ele>
        <time>2013-04-12T18:57:28Z</time>
      </trkpt>
      <trkpt lat="59.9922047" lon="17.7374834">
        <ele>58.2971</ele>
        <time>2013-04-12T18:57:29Z</time>
      </trkpt>
      <trkpt lat="59.9922198" lon="17.7374728">
        <ele>58.2971</ele>
        <time>2013-04-12T18:57:30Z</time>
      </trkpt>
      <trkpt lat="59.9922379" lon="17.7374594">
        <ele>57.8165</ele>
        <time>2013-04-12T18:57:31Z</time>
      </trkpt>
      <trkpt lat="59.9922562" lon="17.7374494">
        <ele>57.8165</ele>
        <time>2013-04-12T18:57:32Z</time>
      </trkpt>
    </trkseg>
  </trk>
</gpx>